SondeTracker

Meteorological Radiosondes Database

Operations

Sounding was ended - last measurement: 2022-12-07 02:00:37z

MAP
About Radiosonde

Number: U0550585

Launch Site: Porto Alegre (BR)

Type: RS41

AUX: NO

Frequency: 403.001 MHz

Max Speed: 130 km/h at 10482 m

Average Speed: 39.82 km/h

Max Altitude: 25525 m

Average Ascent Speed: 6.46 m/s

Average Descent Speed: 4.94 m/s

Status: UNKNOWN

Status Changes
Launch Site Type AUX Frequency Status Finder Landing Point Description Changes made by
APRS Statistics

Received Frames: 534

First Frame [UTC]: 2022-12-06 23:33:05z

Last Frame [UTC]: 2022-12-07 02:00:37z

Receivers: PU3IKE-1, PU3XGS-11, PU3XGS-12, PY3UEB-11

Flight Time: 02:27:32 h

Distance From First Measurement: 72.94 km

Nearest City: Novo Hamburgo (BR) [45.33 km]

Nearest Hunter: pu3xgs [37.94 km]

Ground Altitude: 388 m

Distance from QTH: 0.00 km

APRS Data
Receiver Number Date/Time [UTC] φ λ Course [°] Speed [km/h] Altitude [m] Description
PU3XGS-11U05505852022-12-07 02:00:37-29.4872-50.7232209611Clb=-2.3m/s t=19.2C h=90.1% p=944.9hPa 403.001 MHz Type=RS41-SGP ser=U0550585 Radiosonde By PU3XGS
PU3XGS-11U05505852022-12-07 02:00:07-29.4866-50.72251766685Clb=-2.4m/s t=18.5C h=93.0% p=936.9hPa 403.001 MHz Type=RS41-SGP ser=U0550585 Radiosonde By PU3XGS
PU3XGS-12U05505852022-12-07 02:00:03-29.4865-50.72251827690Clb=-2.2m/s p=936.5hPa t=18.5C h=93.0% 403.000MHz Type=RS41-SGP rdzTTGOsonde
PU3XGS-11U05505852022-12-07 01:59:35-29.4863-50.72221964761Clb=-2.6m/s t=18.3C h=92.8% p=928.8hPa 403.001 MHz Type=RS41-SGP ser=U0550585 Radiosonde By PU3XGS
PU3XGS-11U05505852022-12-07 01:59:04-29.4859-50.72212192839Clb=-2.6m/s t=18.0C h=92.5% p=920.4hPa 403.001 MHz Type=RS41-SGP ser=U0550585 Radiosonde By PU3XGS
PU3XGS-12U05505852022-12-07 01:58:36-29.4859-50.721628511909Clb=-2.3m/s p=913.1hPa t=17.6C h=93.8% 403.000MHz Type=RS41-SGP TxOff=7h8m rdzTTGOsonde
PU3XGS-11U05505852022-12-07 01:58:33-29.486-50.72152889916Clb=-2.3m/s t=17.6C h=93.2% p=912.1hPa 403.001 MHz Type=RS41-SGP ser=U0550585 Radiosonde By PU3XGS
PU3XGS-12U05505852022-12-07 01:58:06-29.4862-50.72113164980Clb=-2.5m/s p=905.5hPa t=17.8C h=92.2% 403.000MHz Type=RS41-SGP TxOff=7h9m rdzTTGOsonde
PU3XGS-11U05505852022-12-07 01:58:02-29.4863-50.72113236992Clb=-2.2m/s t=17.7C h=93.1% p=903.8hPa 403.001 MHz Type=RS41-SGP ser=U0550585 Radiosonde By PU3XGS
PU3XGS-12U05505852022-12-07 01:57:35-29.4867-50.7205295171052Clb=-3.1m/s p=897.6hPa t=17.4C h=94.7% 403.000MHz Type=RS41-SGP TxOff=7h10m rdzTTGOsonde
PU3XGS-11U05505852022-12-07 01:57:31-29.4868-50.7202288171066Clb=-3.1m/s t=17.3C h=95.3% p=896.2hPa 403.001 MHz Type=RS41-SGP ser=U0550585 Radiosonde By PU3XGS
PU3XGS-12U05505852022-12-07 01:57:05-29.487-50.7189287201131Clb=-3.3m/s p=889.2hPa t=17.7C h=79.4% 403.000MHz Type=RS41-SGP TxOff=7h10m rdzTTGOsonde
PU3XGS-11U05505852022-12-07 01:57:00-29.4871-50.7185286261147Clb=-2.9m/s t=17.9C h=72.6% p=887.7hPa 403.001 MHz Type=RS41-SGP ser=U0550585 Radiosonde By PU3XGS
PU3XGS-12U05505852022-12-07 01:56:35-29.4877-50.717303221211Clb=-2.7m/s p=881.0hPa t=18.8C h=55.3% 403.000MHz Type=RS41-SGP TxOff=7h11m rdzTTGOsonde
PU3XGS-11U05505852022-12-07 01:56:28-29.4879-50.7166294191229Clb=-2.6m/s t=18.8C h=55.6% p=879.5hPa 403.001 MHz Type=RS41-SGP ser=U0550585 Radiosonde By PU3XGS
PU3XGS-12U05505852022-12-07 01:56:05-29.4882-50.7154283171290Clb=-2.6m/s p=873.2hPa t=18.6C h=53.6% 403.000MHz Type=RS41-SGP TxOff=7h11m rdzTTGOsonde
PU3XGS-11U05505852022-12-07 01:55:57-29.4882-50.715275221309Clb=-2.9m/s t=18.5C h=53.8% p=871.0hPa 403.001 MHz Type=RS41-SGP ser=U0550585 Radiosonde By PU3XGS
PU3XGS-12U05505852022-12-07 01:55:34-29.4883-50.7133275261372Clb=-2.6m/s p=864.8hPa t=18.5C h=50.6% 403.000MHz Type=RS41-SGP TxOff=7h11m rdzTTGOsonde
PU3XGS-11U05505852022-12-07 01:55:27-29.4884-50.7127276261396Clb=-2.5m/s t=18.4C h=50.6% p=862.4hPa 403.001 MHz Type=RS41-SGP ser=U0550585 Radiosonde By PU3XGS
PU3XGS-12U05505852022-12-07 01:55:03-29.4884-50.711270261456Clb=-3.1m/s p=856.3hPa t=17.8C h=51.5% 403.000MHz Type=RS41-SGP TxOff=7h12m rdzTTGOsonde
PU3XGS-11U05505852022-12-07 01:54:55-29.4884-50.7103265241482Clb=-2.9m/s t=17.6C h=52.1% p=853.7hPa 403.001 MHz Type=RS41-SGP ser=U0550585 Radiosonde By PU3XGS
PU3XGS-12U05505852022-12-07 01:54:32-29.4884-50.709279191542Clb=-2.9m/s p=847.6hPa t=17.2C h=51.8% 403.000MHz Type=RS41-SGP TxOff=7h12m rdzTTGOsonde
PU3XGS-11U05505852022-12-07 01:54:24-29.4884-50.7085280191565Clb=-2.9m/s t=17.1C h=49.6% p=845.3hPa 403.001 MHz Type=RS41-SGP ser=U0550585 Radiosonde By PU3XGS
PU3XGS-12U05505852022-12-07 01:54:01-29.4886-50.7075290171627Clb=-3.7m/s p=839.0hPa t=16.6C h=48.8% 403.000MHz Type=RS41-SGP TxOff=7h13m rdzTTGOsonde
PU3XGS-11U05505852022-12-07 01:53:53-29.4888-50.707297201656Clb=-3.3m/s t=16.4C h=48.9% p=836.6hPa 403.001 MHz Type=RS41-SGP ser=U0550585 Radiosonde By PU3XGS
PU3XGS-12U05505852022-12-07 01:53:29-29.4894-50.706304201726Clb=-2.9m/s p=829.8hPa t=16.0C h=44.4% 403.000MHz Type=RS41-SGP TxOff=7h13m rdzTTGOsonde
PU3XGS-11U05505852022-12-07 01:53:22-29.4896-50.7055292201755Clb=-2.9m/s t=16.4C h=33.3% p=827.1hPa 403.001 MHz Type=RS41-SGP ser=U0550585 Radiosonde By PU3XGS
PU3XGS-12U05505852022-12-07 01:52:59-29.4899-50.7045291131816Clb=-2.7m/s p=821.3hPa t=16.6C h=24.4% 403.000MHz Type=RS41-SGP TxOff=7h14m rdzTTGOsonde
PU3XGS-11U05505852022-12-07 01:52:51-29.49-50.7042305111842Clb=-3.0m/s t=16.5C h=22.0% p=818.7hPa 403.001 MHz Type=RS41-SGP ser=U0550585 Radiosonde By PU3XGS
PU3XGS-12U05505852022-12-07 01:52:27-29.4906-50.7036323131906Clb=-3.0m/s p=812.6hPa t=16.7C h=16.2% 403.000MHz Type=RS41-SGP TxOff=7h15m rdzTTGOsonde
PU3XGS-11U05505852022-12-07 01:52:20-29.4909-50.7034317191931Clb=-2.7m/s t=16.7C h=14.5% p=810.2hPa 403.001 MHz Type=RS41-SGP ser=U0550585 Radiosonde By PU3XGS
PU3XGS-12U05505852022-12-07 01:51:57-29.4912-50.702530271994Clb=-2.8m/s p=804.3hPa t=17.2C h=8.1% 403.000MHz Type=RS41-SGP TxOff=7h15m rdzTTGOsonde
PU3XGS-11U05505852022-12-07 01:51:49-29.4914-50.702434992020Clb=-3.1m/s t=17.5C h=4.9% p=802.0hPa 403.001 MHz Type=RS41-SGP ser=U0550585 Radiosonde By PU3XGS
PU3XGS-12U05505852022-12-07 01:51:27-29.4919-50.70241592081Clb=-2.7m/s p=796.1hPa t=17.9C h=2.6% 403.000MHz Type=RS41-SGP TxOff=7h16m rdzTTGOsonde
PU3XGS-11U05505852022-12-07 01:51:18-29.4921-50.70253462109Clb=-2.8m/s t=18.0C h=2.7% p=793.5hPa 403.001 MHz Type=RS41-SGP ser=U0550585 Radiosonde By PU3XGS
PU3XGS-12U05505852022-12-07 01:50:56-29.4925-50.70271112171Clb=-2.5m/s p=788.2hPa t=17.7C h=3.8% 403.000MHz Type=RS41-SGP TxOff=7h16m rdzTTGOsonde
PU3XGS-11U05505852022-12-07 01:50:47-29.4927-50.702734192194Clb=-2.6m/s t=17.6C h=3.3% p=785.6hPa 403.001 MHz Type=RS41-SGP ser=U0550585 Radiosonde By PU3XGS
PU3XGS-12U05505852022-12-07 01:50:25-29.4929-50.70257222250Clb=-2.8m/s p=780.4hPa t=17.3C h=3.2% 403.000MHz Type=RS41-SGP TxOff=7h17m rdzTTGOsonde
PU3XGS-11U05505852022-12-07 01:50:16-29.493-50.70275372277Clb=-2.8m/s t=17.0C h=3.4% p=778.1hPa 403.001 MHz Type=RS41-SGP ser=U0550585 Radiosonde By PU3XGS
PY3UEB-11U05505852022-12-07 01:50:00-29.4933-50.702935292326Clb=-2.5m/s t=16.7C h=3.4% p=773.5hPa 403.001 MHz Type=RS41-SGP ser=U0550585 Radiosonde auto_rx v1.5.9
PU3XGS-12U05505852022-12-07 01:49:55-29.4934-50.702934792331Clb=-2.4m/s p=773.1hPa t=16.7C h=3.4% 403.000MHz Type=RS41-SGP TxOff=7h17m rdzTTGOsonde
PU3XGS-11U05505852022-12-07 01:49:45-29.4936-50.702832462361Clb=-2.8m/s t=16.4C h=3.4% p=770.2hPa 403.001 MHz Type=RS41-SGP ser=U0550585 Radiosonde By PU3XGS
PY3UEB-11U05505852022-12-07 01:49:30-29.4938-50.702632372405Clb=-2.6m/s t=16.1C h=3.4% p=766.5hPa 403.001 MHz Type=RS41-SGP ser=U0550585 Radiosonde auto_rx v1.5.9
PU3XGS-12U05505852022-12-07 01:49:24-29.4939-50.702532992420Clb=-2.9m/s p=765.1hPa t=15.9C h=3.4% 403.000MHz Type=RS41-SGP TxOff=7h17m rdzTTGOsonde
PU3XGS-11U05505852022-12-07 01:49:14-29.4942-50.7024356112452Clb=-3.0m/s t=15.7C h=3.3% p=762.4hPa 403.001 MHz Type=RS41-SGP ser=U0550585 Radiosonde By PU3XGS
PY3UEB-11U05505852022-12-07 01:49:00-29.4946-50.7024356112491Clb=-2.9m/s t=15.4C h=3.2% p=758.8hPa 403.001 MHz Type=RS41-SGP ser=U0550585 Radiosonde auto_rx v1.5.9
PU3XGS-12U05505852022-12-07 01:48:54-29.4948-50.7024351132506Clb=-3.0m/s p=757.5hPa t=15.5C h=3.2% 403.000MHz Type=RS41-SGP TxOff=7h18m rdzTTGOsonde
PU3XGS-11U05505852022-12-07 01:48:43-29.4952-50.7022332132539Clb=-2.6m/s t=15.2C h=3.4% p=754.4hPa 403.001 MHz Type=RS41-SGP ser=U0550585 Radiosonde By PU3XGS
PU3XGS-12U05505852022-12-07 01:48:23-29.4957-50.7018333152596Clb=-2.7m/s p=749.6hPa t=14.8C h=3.5% 403.000MHz Type=RS41-SGP TxOff=7h18m rdzTTGOsonde
PU3XGS-11U05505852022-12-07 01:48:12-29.4961-50.7016335152632Clb=-3.0m/s t=14.4C h=3.7% p=746.2hPa 403.001 MHz Type=RS41-SGP ser=U0550585 Radiosonde By PU3XGS
PY3UEB-11U05505852022-12-07 01:48:00-29.4966-50.7014340172668Clb=-3.0m/s t=14.2C h=3.8% p=743.1hPa 403.001 MHz Type=RS41-SGP ser=U0550585 Radiosonde auto_rx v1.5.9
PU3XGS-12U05505852022-12-07 01:47:52-29.4968-50.7013334172686Clb=-3.2m/s p=741.4hPa t=14.0C h=3.8% 403.000MHz Type=RS41-SGP TxOff=7h19m rdzTTGOsonde
PU3XGS-11U05505852022-12-07 01:47:41-29.4974-50.701338172729Clb=-3.2m/s t=13.7C h=3.9% p=737.7hPa 403.001 MHz Type=RS41-SGP ser=U0550585 Radiosonde By PU3XGS
PY3UEB-11U05505852022-12-07 01:47:30-29.4978-50.7008337172761Clb=-3.1m/s t=13.5C h=3.9% p=735.0hPa 403.001 MHz Type=RS41-SGP ser=U0550585 Radiosonde auto_rx v1.5.9
PU3XGS-12U05505852022-12-07 01:47:22-29.4981-50.7007339172782Clb=-3.0m/s p=733.0hPa t=13.3C h=4.0% 403.000MHz Type=RS41-SGP TxOff=7h20m rdzTTGOsonde
PU3XGS-11U05505852022-12-07 01:47:09-29.4986-50.7005339172826Clb=-3.3m/s t=12.9C h=4.8% p=729.3hPa 403.001 MHz Type=RS41-SGP ser=U0550585 Radiosonde By PU3XGS
PY3UEB-11U05505852022-12-07 01:47:00-29.499-50.7002328192854Clb=-3.0m/s t=12.7C h=5.0% p=726.7hPa 403.001 MHz Type=RS41-SGP ser=U0550585 Radiosonde auto_rx v1.5.9
PU3XGS-12U05505852022-12-07 01:46:51-29.4993-50.6999312172882Clb=-2.9m/s p=724.6hPa t=12.5C h=4.9% 403.000MHz Type=RS41-SGP TxOff=7h20m rdzTTGOsonde
PU3XGS-11U05505852022-12-07 01:46:38-29.4996-50.699632692923Clb=-3.0m/s t=12.1C h=4.4% p=720.8hPa 403.001 MHz Type=RS41-SGP ser=U0550585 Radiosonde By PU3XGS
PY3UEB-11U05505852022-12-07 01:46:30-29.4998-50.699533592948Clb=-3.3m/s t=11.9C h=4.4% p=718.6hPa 403.001 MHz Type=RS41-SGP ser=U0550585 Radiosonde auto_rx v1.5.9
PU3XGS-12U05505852022-12-07 01:46:21-29.5-50.6994349112974Clb=-3.0m/s p=716.5hPa t=11.7C h=4.4% 403.000MHz Type=RS41-SGP TxOff=7h21m rdzTTGOsonde
PY3UEB-11U05505852022-12-07 01:46:00-29.5007-50.69933133043Clb=-3.5m/s t=11.2C h=4.3% p=710.4hPa 403.001 MHz Type=RS41-SGP ser=U0550585 Radiosonde auto_rx v1.5.9
PU3XGS-12U05505852022-12-07 01:45:50-29.501-50.699334793073Clb=-3.2m/s p=708.0hPa t=11.0C h=4.3% 403.000MHz Type=RS41-SGP TxOff=7h21m rdzTTGOsonde
PU3XGS-11U05505852022-12-07 01:45:36-29.5013-50.699316153121Clb=-3.4m/s t=10.8C h=4.5% p=704.0hPa 403.001 MHz Type=RS41-SGP ser=U0550585 Radiosonde By PU3XGS
PY3UEB-11U05505852022-12-07 01:45:30-29.5015-50.6988325173141Clb=-3.3m/s t=10.6C h=4.8% p=702.2hPa 403.001 MHz Type=RS41-SGP ser=U0550585 Radiosonde auto_rx v1.5.9
PU3XGS-12U05505852022-12-07 01:45:20-29.5019-50.6986332203170Clb=-3.0m/s p=699.7hPa t=10.4C h=6.5% 403.000MHz Type=RS41-SGP TxOff=7h22m rdzTTGOsonde
PU3XGS-11U05505852022-12-07 01:45:06-29.5025-50.6981312153221Clb=-3.2m/s t=9.9C h=7.3% p=695.5hPa 403.001 MHz Type=RS41-SGP ser=U0550585 Radiosonde By PU3XGS
PY3UEB-11U05505852022-12-07 01:45:00-29.5026-50.6979310133237Clb=-3.2m/s t=9.8C h=7.2% p=694.2hPa 403.001 MHz Type=RS41-SGP ser=U0550585 Radiosonde auto_rx v1.5.9
PU3XGS-12U05505852022-12-07 01:44:49-29.5028-50.6976313133269Clb=-2.9m/s p=691.5hPa t=9.5C h=7.3% 403.000MHz Type=RS41-SGP TxOff=7h22m rdzTTGOsonde
PU3XGS-11U05505852022-12-07 01:44:34-29.5031-50.6972319113318Clb=-2.9m/s t=9.0C h=7.7% p=687.5hPa 403.001 MHz Type=RS41-SGP ser=U0550585 Radiosonde By PU3XGS
PY3UEB-11U05505852022-12-07 01:44:30-29.5032-50.697232993330Clb=-3.2m/s t=8.9C h=7.7% p=686.5hPa 403.001 MHz Type=RS41-SGP ser=U0550585 Radiosonde auto_rx v1.5.9
PU3XGS-12U05505852022-12-07 01:44:18-29.5035-50.69735393364Clb=-3.0m/s p=683.7hPa t=8.6C h=6.9% 403.000MHz Type=RS41-SGP TxOff=7h22m rdzTTGOsonde
PY3UEB-11U05505852022-12-07 01:44:00-29.504-50.697114113423Clb=-3.0m/s t=8.3C h=5.4% p=678.8hPa 403.001 MHz Type=RS41-SGP ser=U0550585 Radiosonde auto_rx v1.5.9
PU3XGS-12U05505852022-12-07 01:43:47-29.5043-50.697218153456Clb=-3.2m/s p=676.0hPa t=8.1C h=4.8% 403.000MHz Type=RS41-SGP TxOff=7h23m rdzTTGOsonde
PU3XGS-11U05505852022-12-07 01:43:32-29.505-50.697415173510Clb=-2.8m/s t=7.8C h=3.4% p=671.8hPa 403.001 MHz Type=RS41-SGP ser=U0550585 Radiosonde By PU3XGS
PY3UEB-11U05505852022-12-07 01:43:30-29.505-50.697416173513Clb=-2.7m/s t=7.8C h=3.3% p=671.5hPa 403.001 MHz Type=RS41-SGP ser=U0550585 Radiosonde auto_rx v1.5.9
PU3XGS-12U05505852022-12-07 01:43:17-29.5055-50.697627153548Clb=-3.2m/s p=668.5hPa t=7.5C h=3.2% 403.000MHz Type=RS41-SGP TxOff=7h23m rdzTTGOsonde
PY3UEB-11U05505852022-12-07 01:43:00-29.5061-50.69823193601Clb=-2.9m/s t=7.1C h=3.2% p=664.2hPa 403.001 MHz Type=RS41-SGP ser=U0550585 Radiosonde auto_rx v1.5.9
PU3XGS-12U05505852022-12-07 01:42:46-29.5067-50.698320203639Clb=-2.8m/s p=661.2hPa t=6.9C h=3.8% 403.000MHz Type=RS41-SGP TxOff=7h24m rdzTTGOsonde
PY3UEB-11U05505852022-12-07 01:42:30-29.5076-50.698618223688Clb=-2.7m/s t=6.4C h=4.4% p=657.4hPa 403.001 MHz Type=RS41-SGP ser=U0550585 Radiosonde auto_rx v1.5.9
PU3XGS-12U05505852022-12-07 01:42:16-29.5083-50.69872223727Clb=-2.7m/s p=654.2hPa t=6.1C h=4.9% 403.000MHz Type=RS41-SGP TxOff=7h25m rdzTTGOsonde
PY3UEB-11U05505852022-12-07 01:42:00-29.5091-50.6986348133775Clb=-2.9m/s t=5.6C h=5.1% p=650.4hPa 403.001 MHz Type=RS41-SGP ser=U0550585 Radiosonde auto_rx v1.5.9
PU3XGS-12U05505852022-12-07 01:41:45-29.5095-50.6985346133815Clb=-3.1m/s p=647.1hPa t=5.3C h=5.1% 403.000MHz Type=RS41-SGP TxOff=7h25m rdzTTGOsonde
PY3UEB-11U05505852022-12-07 01:41:30-29.51-50.698434593861Clb=-3.0m/s t=4.9C h=4.8% p=643.4hPa 403.001 MHz Type=RS41-SGP ser=U0550585 Radiosonde auto_rx v1.5.9
PU3XGS-11U05505852022-12-07 01:41:28-29.5101-50.698434993867Clb=-3.0m/s t=4.9C h=4.7% p=642.9hPa 403.001 MHz Type=RS41-SGP ser=U0550585 Radiosonde By PU3XGS
PU3XGS-12U05505852022-12-07 01:41:14-29.5103-50.6984773903Clb=-2.7m/s p=640.2hPa t=4.7C h=4.9% 403.000MHz Type=RS41-SGP TxOff=7h26m rdzTTGOsonde
PY3UEB-11U05505852022-12-07 01:41:00-29.5106-50.69853173950Clb=-2.9m/s t=4.2C h=5.4% p=636.5hPa 403.001 MHz Type=RS41-SGP ser=U0550585 Radiosonde auto_rx v1.5.9
PU3XGS-12U05505852022-12-07 01:40:45-29.511-50.698733153991Clb=-3.0m/s p=633.3hPa t=3.9C h=5.7% 403.000MHz Type=RS41-SGP TxOff=7h26m rdzTTGOsonde
PY3UEB-11U05505852022-12-07 01:40:30-29.5115-50.699123174039Clb=-2.9m/s t=3.5C h=5.3% p=629.7hPa 403.001 MHz Type=RS41-SGP ser=U0550585 Radiosonde auto_rx v1.5.9
PU3XGS-11U05505852022-12-07 01:40:26-29.5117-50.699223174050Clb=-2.8m/s t=3.4C h=5.3% p=628.9hPa 403.001 MHz Type=RS41-SGP ser=U0550585 Radiosonde By PU3XGS
PU3XGS-12U05505852022-12-07 01:40:14-29.5122-50.699418204082Clb=-2.8m/s p=626.2hPa t=3.2C h=5.3% 403.000MHz Type=RS41-SGP TxOff=7h27m rdzTTGOsonde
PY3UEB-11U05505852022-12-07 01:40:00-29.5129-50.699719204124Clb=-2.9m/s t=2.8C h=5.5% p=623.2hPa 403.001 MHz Type=RS41-SGP ser=U0550585 Radiosonde auto_rx v1.5.9
PU3XGS-12U05505852022-12-07 01:39:44-29.5137-50.724244168Clb=-3.1m/s p=619.8hPa t=3.0C h=3.2% 403.000MHz Type=RS41-SGP TxOff=7h28m rdzTTGOsonde
PY3UEB-11U05505852022-12-07 01:39:30-29.5145-50.700635264214Clb=-3.2m/s t=2.9C h=3.2% p=616.1hPa 403.001 MHz Type=RS41-SGP ser=U0550585 Radiosonde auto_rx v1.5.9
PU3XGS-12U05505852022-12-07 01:39:13-29.5154-50.701338304262Clb=-2.9m/s p=612.6hPa t=3.4C h=2.2% 403.000MHz Type=RS41-SGP TxOff=7h28m rdzTTGOsonde
PY3UEB-11U05505852022-12-07 01:39:00-29.5163-50.702133314304Clb=-2.8m/s t=3.6C h=1.5% p=609.5hPa 403.001 MHz Type=RS41-SGP ser=U0550585 Radiosonde auto_rx v1.5.9
PU3XGS-11U05505852022-12-07 01:38:52-29.5169-50.702529334332Clb=-3.2m/s t=3.4C h=1.4% p=607.4hPa 403.001 MHz Type=RS41-SGP ser=U0550585 Radiosonde By PU3XGS
PU3XGS-12U05505852022-12-07 01:38:42-29.5175-50.70339334358Clb=-3.0m/s p=605.5hPa t=3.3C h=1.2% 403.000MHz Type=RS41-SGP TxOff=7h28m rdzTTGOsonde
PY3UEB-11U05505852022-12-07 01:38:30-29.5185-50.70442304411Clb=-2.9m/s t=3.1C h=1.5% p=601.4hPa 403.001 MHz Type=RS41-SGP ser=U0550585 Radiosonde auto_rx v1.5.9
PU3XGS-12U05505852022-12-07 01:38:11-29.5192-50.704736264453Clb=-3.2m/s p=598.4hPa t=2.8C h=1.5% 403.000MHz Type=RS41-SGP TxOff=7h28m rdzTTGOsonde
PY3UEB-11U05505852022-12-07 01:38:00-29.5201-50.705327264503Clb=-3.3m/s t=2.5C h=1.8% p=594.6hPa 403.001 MHz Type=RS41-SGP ser=U0550585 Radiosonde auto_rx v1.5.9
PU3XGS-11U05505852022-12-07 01:37:50-29.5205-50.705525264522Clb=-3.5m/s t=2.3C h=1.8% p=593.0hPa 403.001 MHz Type=RS41-SGP ser=U0550585 Radiosonde By PU3XGS
PU3XGS-12U05505852022-12-07 01:37:41-29.521-50.705823304549Clb=-3.0m/s p=591.3hPa t=2.1C h=1.8% 403.000MHz Type=RS41-SGP TxOff=7h29m rdzTTGOsonde
PY3UEB-11U05505852022-12-07 01:37:30-29.5219-50.706223334586Clb=-3.2m/s t=1.8C h=1.8% p=588.6hPa 403.001 MHz Type=RS41-SGP ser=U0550585 Radiosonde auto_rx v1.5.9
PU3XGS-12U05505852022-12-07 01:37:10-29.5234-50.707128394648Clb=-3.0m/s p=584.1hPa t=1.3C h=1.7% 403.000MHz Type=RS41-SGP TxOff=7h30m rdzTTGOsonde
PY3UEB-11U05505852022-12-07 01:37:00-29.5244-50.707624374684Clb=-3.0m/s t=1.1C h=1.7% p=581.6hPa 403.001 MHz Type=RS41-SGP ser=U0550585 Radiosonde auto_rx v1.5.9
PU3XGS-11U05505852022-12-07 01:36:48-29.5254-50.708123394722Clb=-3.2m/s t=0.8C h=1.8% p=578.8hPa 403.001 MHz Type=RS41-SGP ser=U0550585 Radiosonde By PU3XGS
PU3XGS-12U05505852022-12-07 01:36:39-29.5262-50.708527414748Clb=-3.2m/s p=576.8hPa t=0.6C h=2.0% 403.000MHz Type=RS41-SGP TxOff=7h30m rdzTTGOsonde
PY3UEB-11U05505852022-12-07 01:36:30-29.527-50.70930394779Clb=-2.9m/s t=0.3C h=-1.0% p=574.5hPa 403.001 MHz Type=RS41-SGP ser=U0550585 Radiosonde auto_rx v1.5.9
PU3XGS-12U05505852022-12-07 01:36:09-29.5286-50.710337334843Clb=-3.1m/s p=570.0hPa t=-0.2C h=2.2% 403.000MHz Type=RS41-SGP TxOff=7h31m rdzTTGOsonde
PY3UEB-11U05505852022-12-07 01:36:00-29.5292-50.710835304875Clb=-3.0m/s t=-0.4C h=-1.0% p=567.7hPa 403.001 MHz Type=RS41-SGP ser=U0550585 Radiosonde auto_rx v1.5.9
PU3XGS-11U05505852022-12-07 01:35:46-29.5301-50.711421304918Clb=-3.1m/s t=-0.8C h=2.0% p=564.7hPa 403.001 MHz Type=RS41-SGP ser=U0550585 Radiosonde By PU3XGS
PU3XGS-12U05505852022-12-07 01:35:37-29.5307-50.711621354940Clb=-3.1m/s p=563.1hPa t=-1.0C h=2.2% 403.000MHz Type=RS41-SGP TxOff=7h31m rdzTTGOsonde
PY3UEB-11U05505852022-12-07 01:35:30-29.5314-50.711920354968Clb=-3.3m/s t=-1.3C h=-1.0% p=561.2hPa 403.001 MHz Type=RS41-SGP ser=U0550585 Radiosonde auto_rx v1.5.9
PU3XGS-12U05505852022-12-07 01:35:07-29.5333-50.712718375038Clb=-3.2m/s p=556.4hPa t=-1.8C h=2.2% 403.000MHz Type=RS41-SGP TxOff=7h32m rdzTTGOsonde
PY3UEB-11U05505852022-12-07 01:35:00-29.534-50.712916375064Clb=-3.1m/s t=-2.0C h=-1.0% p=554.4hPa 403.001 MHz Type=RS41-SGP ser=U0550585 Radiosonde auto_rx v1.5.9
PU3XGS-11U05505852022-12-07 01:34:44-29.5355-50.713518395115Clb=-3.3m/s t=-2.3C h=1.7% p=551.0hPa 403.001 MHz Type=RS41-SGP ser=U0550585 Radiosonde By PU3XGS
PU3XGS-12U05505852022-12-07 01:34:36-29.5363-50.713714395140Clb=-3.6m/s p=549.5hPa t=-2.4C h=1.7% 403.000MHz Type=RS41-SGP TxOff=7h33m rdzTTGOsonde
PY3UEB-11U05505852022-12-07 01:34:30-29.5368-50.713810335160Clb=-3.3m/s t=-273.0C h=-1.0% p=-1.0hPa 403.001 MHz Type=RS41-SGP ser=U0550585 Radiosonde auto_rx v1.5.9
PU3XGS-12U05505852022-12-07 01:34:05-29.5387-50.71428375237Clb=-3.4m/s p=542.6hPa t=-2.7C h=1.2% 403.000MHz Type=RS41-SGP TxOff=7h33m rdzTTGOsonde
PU3XGS-11U05505852022-12-07 01:33:42-29.5409-50.71523335313Clb=-3.0m/s t=-3.3C h=1.5% p=537.5hPa 403.001 MHz Type=RS41-SGP ser=U0550585 Radiosonde By PU3XGS
PU3XGS-12U05505852022-12-07 01:33:35-29.5413-50.715226315332Clb=-3.0m/s p=536.0hPa t=-3.4C h=1.5% 403.000MHz Type=RS41-SGP TxOff=7h34m rdzTTGOsonde
PU3IKE-1U05505852022-12-07 01:33:30-29.5421-50.715510285370Clb=-2.8m/s t=-3.7C h=1.6% p=533.5hPa 403.001 MHz Type=RS41-SGP RSonde auto_rx v1.5.9
PU3XGS-12U05505852022-12-07 01:33:03-29.5438-50.71578375428Clb=-2.8m/s p=529.7hPa t=-4.2C h=1.8% 403.000MHz Type=RS41-SGP TxOff=7h34m rdzTTGOsonde
PY3UEB-11U05505852022-12-07 01:33:00-29.5448-50.71595375462Clb=-3.2m/s t=-273.0C h=-1.0% p=-1.0hPa 403.001 MHz Type=RS41-SGP ser=U0550585 Radiosonde auto_rx v1.5.9
PU3XGS-11U05505852022-12-07 01:32:40-29.5462-50.7164395507Clb=-3.1m/s t=-4.7C h=1.8% p=524.3hPa 403.001 MHz Type=RS41-SGP ser=U0550585 Radiosonde By PU3XGS
PU3XGS-12U05505852022-12-07 01:32:33-29.5467-50.71614395523Clb=-3.2m/s p=523.3hPa t=-4.7C h=1.8% 403.000MHz Type=RS41-SGP TxOff=7h34m rdzTTGOsonde
PY3UEB-11U05505852022-12-07 01:32:30-29.5476-50.71612375554Clb=-2.8m/s t=-273.0C h=-1.0% p=-1.0hPa 403.001 MHz Type=RS41 ser=U0550585 Radiosonde auto_rx v1.5.9
PU3XGS-11U05505852022-12-07 01:32:08-29.5492-50.71620415604Clb=-3.0m/s t=-5.0C h=1.5% p=517.9hPa 403.001 MHz Type=RS41-SGP ser=U0550585 Radiosonde By PU3XGS
PU3XGS-12U05505852022-12-07 01:32:04-29.5496-50.71625445617Clb=-3.2m/s p=517.1hPa t=-5.1C h=1.5% 403.000MHz Type=RS41-SGP TxOff=7h35m rdzTTGOsonde
PU3XGS-12U05505852022-12-07 01:31:33-29.5526-50.7166359435710Clb=-2.9m/s p=511.1hPa t=-5.6C h=2.5% 403.000MHz Type=RS41-SGP TxOff=7h35m rdzTTGOsonde
PU3IKE-1U05505852022-12-07 01:31:30-29.5533-50.71664485729Clb=-3.0m/s t=-5.8C h=2.5% p=509.9hPa 403.001 MHz Type=RS41-SGP RSonde auto_rx v1.5.9
PU3XGS-11U05505852022-12-07 01:31:06-29.5556-50.71710435795Clb=-3.0m/s t=-6.2C h=2.3% p=505.5hPa 403.001 MHz Type=RS41-SGP ser=U0550585 Radiosonde By PU3XGS
PU3XGS-12U05505852022-12-07 01:31:02-29.5559-50.71715485804Clb=-3.1m/s p=505.0hPa t=-6.3C h=2.3% 403.000MHz Type=RS41-SGP TxOff=7h36m rdzTTGOsonde
PU3IKE-1U05505852022-12-07 01:31:00-29.5564-50.71729485816Clb=-3.1m/s t=-6.4C h=2.3% p=504.2hPa 403.001 MHz Type=RS41-SGP RSonde auto_rx v1.5.9
PU3XGS-12U05505852022-12-07 01:30:32-29.559-50.71786465893Clb=-3.1m/s p=499.2hPa t=-7.2C h=2.5% 403.000MHz Type=RS41-SGP TxOff=7h36m rdzTTGOsonde
PU3XGS-11U05505852022-12-07 01:30:04-29.5619-50.71855445981Clb=-3.0m/s t=-8.0C h=2.7% p=493.7hPa 403.001 MHz Type=RS41-SGP ser=U0550585 Radiosonde By PU3XGS
PU3XGS-12U05505852022-12-07 01:30:02-29.562-50.71858465984Clb=-3.1m/s p=493.5hPa t=-8.0C h=2.7% 403.000MHz Type=RS41-SGP TxOff=7h37m rdzTTGOsonde
PU3IKE-1U05505852022-12-07 01:30:00-29.5639-50.719326396041Clb=-3.4m/s t=-8.6C h=2.8% p=489.7hPa 403.001 MHz Type=RS41-SGP RSonde auto_rx v1.5.9
PU3XGS-12U05505852022-12-07 01:29:31-29.565-50.71978356083Clb=-3.0m/s p=487.4hPa t=-8.9C h=2.9% 403.000MHz Type=RS41-SGP TxOff=7h38m rdzTTGOsonde
PU3IKE-1U05505852022-12-07 01:29:30-29.5651-50.71976376086Clb=-3.2m/s t=-8.9C h=2.9% p=487.0hPa 403.001 MHz Type=RS41-SGP RSonde auto_rx v1.5.9
PU3XGS-11U05505852022-12-07 01:29:02-29.5675-50.72089316171Clb=-3.0m/s t=-9.5C h=2.5% p=481.7hPa 403.001 MHz Type=RS41-SGP ser=U0550585 Radiosonde By PU3XGS
PU3XGS-12U05505852022-12-07 01:29:00-29.5676-50.720810336175Clb=-3.3m/s p=481.3hPa t=-9.5C h=2.5% 403.000MHz Type=RS41-SGP TxOff=7h38m rdzTTGOsonde
PU3XGS-12U05505852022-12-07 01:28:29-29.5703-50.722229306271Clb=-3.3m/s p=475.5hPa t=-10.3C h=2.5% 403.000MHz Type=RS41-SGP TxOff=7h39m rdzTTGOsonde
PU3XGS-11U05505852022-12-07 01:28:00-29.5731-50.723934446364Clb=-2.9m/s t=-10.9C h=2.2% p=469.9hPa 403.001 MHz Type=RS41-SGP ser=U0550585 Radiosonde By PU3XGS
PU3XGS-12U05505852022-12-07 01:27:58-29.5732-50.723935466368Clb=-3.2m/s p=469.7hPa t=-10.9C h=2.3% 403.000MHz Type=RS41-SGP TxOff=7h39m rdzTTGOsonde
PU3XGS-12U05505852022-12-07 01:27:26-29.5763-50.726230466464Clb=-3.4m/s p=463.9hPa t=-11.5C h=2.0% 403.000MHz Type=RS41-SGP TxOff=7h39m rdzTTGOsonde
PU3XGS-11U05505852022-12-07 01:26:58-29.5797-50.728338576561Clb=-3.4m/s t=-12.2C h=2.4% p=457.8hPa 403.001 MHz Type=RS41-SGP ser=U0550585 Radiosonde By PU3XGS
PU3XGS-12U05505852022-12-07 01:26:56-29.5798-50.728441576565Clb=-3.4m/s p=457.7hPa t=-12.2C h=2.3% 403.000MHz Type=RS41-SGP TxOff=7h40m rdzTTGOsonde
PU3IKE-1U05505852022-12-07 01:26:30-29.5828-50.730539526653Clb=-3.2m/s t=-12.9C h=2.3% p=452.5hPa 403.001 MHz Type=RS41-SGP RSonde auto_rx v1.5.9
PU3XGS-12U05505852022-12-07 01:26:26-29.5831-50.730839486663Clb=-3.2m/s p=451.8hPa t=-12.9C h=2.3% 403.000MHz Type=RS41-SGP TxOff=7h40m rdzTTGOsonde
PY3UEB-11U05505852022-12-07 01:26:00-29.5861-50.732633566756Clb=-3.2m/s t=-13.7C h=2.4% p=446.4hPa 403.001 MHz Type=RS41-SGP ser=U0550585 Radiosonde auto_rx v1.5.9
PU3XGS-11U05505852022-12-07 01:25:56-29.5865-50.732835546766Clb=-3.4m/s t=-13.8C h=2.4% p=445.8hPa 403.001 MHz Type=RS41-SGP ser=U0550585 Radiosonde By PU3XGS
PU3XGS-12U05505852022-12-07 01:25:55-29.5865-50.732937566766Clb=-3.4m/s p=446.1hPa t=-13.8C h=2.4% 403.000MHz Type=RS41-SGP TxOff=7h41m rdzTTGOsonde
PY3UEB-11U05505852022-12-07 01:25:30-29.5893-50.734835576855Clb=-3.4m/s t=-14.4C h=2.5% p=440.7hPa 403.001 MHz Type=RS41-SGP ser=U0550585 Radiosonde auto_rx v1.5.9
PU3XGS-12U05505852022-12-07 01:25:24-29.5897-50.735241506868Clb=-3.2m/s p=439.8hPa t=-14.5C h=2.4% 403.000MHz Type=RS41-SGP TxOff=7h41m rdzTTGOsonde
PY3UEB-11U05505852022-12-07 01:25:00-29.5925-50.73737526955Clb=-3.4m/s t=-14.9C h=2.2% p=434.8hPa 403.001 MHz Type=RS41-SGP ser=U0550585 Radiosonde auto_rx v1.5.9
PU3XGS-11U05505852022-12-07 01:24:54-29.5931-50.737638486976Clb=-3.7m/s t=-15.1C h=2.1% p=433.6hPa 403.001 MHz Type=RS41-SGP ser=U0550585 Radiosonde By PU3XGS
PY3UEB-11U05505852022-12-07 01:24:30-29.5958-50.739426507070Clb=-3.2m/s t=-15.6C h=2.0% p=428.2hPa 403.001 MHz Type=RS41-SGP ser=U0550585 Radiosonde auto_rx v1.5.9
PU3XGS-12U05505852022-12-07 01:24:24-29.5959-50.739527507074Clb=-3.2m/s p=428.0hPa t=-15.6C h=2.0% 403.000MHz Type=RS41-SGP TxOff=7h43m rdzTTGOsonde
PU3IKE-1U05505852022-12-07 01:24:00-29.5989-50.741830467164Clb=-3.1m/s t=-16.2C h=2.0% p=423.1hPa 403.001 MHz Type=RS41-SGP RSonde auto_rx v1.5.9
PU3XGS-12U05505852022-12-07 01:23:53-29.5994-50.742127527177Clb=-3.2m/s p=422.3hPa t=-16.4C h=2.0% 403.000MHz Type=RS41-SGP TxOff=7h43m rdzTTGOsonde
PU3XGS-11U05505852022-12-07 01:23:52-29.5997-50.742327567187Clb=-3.2m/s t=-16.5C h=1.9% p=421.8hPa 403.001 MHz Type=RS41-SGP ser=U0550585 Radiosonde By PU3XGS
PY3UEB-11U05505852022-12-07 01:23:30-29.6024-50.744627487269Clb=-3.5m/s t=-17.2C h=2.0% p=417.2hPa 403.001 MHz Type=RS41-SGP ser=U0550585 Radiosonde auto_rx v1.5.9
PU3XGS-12U05505852022-12-07 01:23:22-29.6027-50.744727527276Clb=-3.2m/s p=416.8hPa t=-17.2C h=2.1% 403.000MHz Type=RS41-SGP TxOff=7h44m rdzTTGOsonde
PU3IKE-1U05505852022-12-07 01:23:00-29.6058-50.74722527366Clb=-2.8m/s t=-18.0C h=2.1% p=411.8hPa 403.001 MHz Type=RS41-SGP RSonde auto_rx v1.5.9
PU3XGS-12U05505852022-12-07 01:22:52-29.6062-50.747123567376Clb=-2.9m/s p=411.4hPa t=-18.0C h=2.1% 403.000MHz Type=RS41-SGP TxOff=7h44m rdzTTGOsonde
PU3XGS-11U05505852022-12-07 01:22:50-29.6066-50.747323577385Clb=-3.3m/s t=-18.1C h=2.1% p=410.7hPa 403.001 MHz Type=RS41-SGP ser=U0550585 Radiosonde By PU3XGS
PY3UEB-11U05505852022-12-07 01:22:30-29.6092-50.749240597448Clb=-3.3m/s t=-18.6C h=2.3% p=407.4hPa 403.001 MHz Type=RS41-SGP ser=U0550585 Radiosonde auto_rx v1.5.9
PU3XGS-12U05505852022-12-07 01:22:22-29.6099-50.7545527472Clb=-3.5m/s p=406.0hPa t=-18.7C h=2.3% 403.000MHz Type=RS41-SGP TxOff=7h45m rdzTTGOsonde
PY3UEB-11U05505852022-12-07 01:22:00-29.6123-50.752349527547Clb=-3.3m/s t=-19.1C h=2.2% p=402.0hPa 403.001 MHz Type=RS41-SGP ser=U0550585 Radiosonde auto_rx v1.5.9
PU3XGS-12U05505852022-12-07 01:21:50-29.613-50.753145447574Clb=-3.3m/s p=400.5hPa t=-19.2C h=2.2% 403.000MHz Type=RS41-SGP TxOff=7h45m rdzTTGOsonde
PU3XGS-11U05505852022-12-07 01:21:48-29.6133-50.753536467587Clb=-3.1m/s t=-19.3C h=2.2% p=399.8hPa 403.001 MHz Type=RS41-SGP ser=U0550585 Radiosonde By PU3XGS
PY3UEB-11U05505852022-12-07 01:21:30-29.6152-50.755245567644Clb=-3.4m/s t=-19.7C h=2.2% p=396.7hPa 403.001 MHz Type=RS41-SGP ser=U0550585 Radiosonde auto_rx v1.5.9
PU3XGS-12U05505852022-12-07 01:21:20-29.6161-50.756350567674Clb=-3.0m/s p=395.2hPa t=-19.9C h=2.3% 403.000MHz Type=RS41-SGP TxOff=7h45m rdzTTGOsonde
PU3XGS-11U05505852022-12-07 01:21:16-29.6165-50.756848567687Clb=-3.1m/s t=-20.0C h=2.2% p=394.4hPa 403.001 MHz Type=RS41-SGP ser=U0550585 Radiosonde By PU3XGS
PY3UEB-11U05505852022-12-07 01:21:00-29.618-50.758851547743Clb=-3.4m/s t=-20.4C h=2.2% p=391.5hPa 403.001 MHz Type=RS41-SGP ser=U0550585 Radiosonde auto_rx v1.5.9
PU3XGS-12U05505852022-12-07 01:20:50-29.6188-50.7655567773Clb=-3.5m/s p=389.8hPa t=-20.6C h=2.3% 403.000MHz Type=RS41-SGP TxOff=7h46m rdzTTGOsonde
PU3IKE-1U05505852022-12-07 01:20:30-29.6203-50.762449447845Clb=-3.5m/s t=-21.2C h=2.4% p=386.1hPa 403.001 MHz Type=RS41-SGP RSonde auto_rx v1.5.9
PU3XGS-12U05505852022-12-07 01:20:19-29.6211-50.763447467879Clb=-3.4m/s p=384.4hPa t=-21.5C h=2.5% 403.000MHz Type=RS41-SGP TxOff=7h46m rdzTTGOsonde
PU3XGS-11U05505852022-12-07 01:20:14-29.6215-50.763944447900Clb=-3.2m/s t=-21.7C h=2.5% p=383.4hPa 403.001 MHz Type=RS41-SGP ser=U0550585 Radiosonde By PU3XGS
PY3UEB-11U05505852022-12-07 01:20:00-29.6228-50.765238507947Clb=-3.3m/s t=-22.2C h=2.5% p=380.8hPa 403.001 MHz Type=RS41-SGP ser=U0550585 Radiosonde auto_rx v1.5.9
PU3XGS-12U05505852022-12-07 01:19:48-29.624-50.766342597986Clb=-3.7m/s p=378.8hPa t=-22.5C h=2.6% 403.000MHz Type=RS41-SGP TxOff=7h47m rdzTTGOsonde
PY3UEB-11U05505852022-12-07 01:19:30-29.6257-50.768651508053Clb=-3.2m/s t=-23.1C h=2.7% p=375.5hPa 403.001 MHz Type=RS41-SGP ser=U0550585 Radiosonde auto_rx v1.5.9
PU3XGS-12U05505852022-12-07 01:19:16-29.6266-50.769847448095Clb=-3.5m/s p=373.3hPa t=-23.4C h=2.8% 403.000MHz Type=RS41-SGP TxOff=7h48m rdzTTGOsonde
PU3XGS-11U05505852022-12-07 01:19:12-29.6271-50.770337438116Clb=-3.5m/s t=-23.6C h=2.8% p=372.2hPa 403.001 MHz Type=RS41-SGP ser=U0550585 Radiosonde By PU3XGS
PU3IKE-1U05505852022-12-07 01:19:00-29.6284-50.771331528163Clb=-3.9m/s t=-23.5C h=3.5% p=369.9hPa 403.001 MHz Type=RS41-SGP RSonde auto_rx v1.5.9
PU3XGS-12U05505852022-12-07 01:18:46-29.6299-50.772331568212Clb=-3.5m/s p=367.5hPa t=-23.5C h=2.9% 403.000MHz Type=RS41-SGP TxOff=7h48m rdzTTGOsonde
PU3IKE-1U05505852022-12-07 01:18:30-29.6321-50.77439678275Clb=-3.6m/s t=-23.4C h=2.7% p=364.2hPa 403.001 MHz Type=RS41-SGP RSonde auto_rx v1.5.9
PU3XGS-12U05505852022-12-07 01:18:15-29.6338-50.775848698333Clb=-4.5m/s p=361.4hPa t=-23.7C h=2.8% 403.000MHz Type=RS41-SGP TxOff=7h49m rdzTTGOsonde
PU3XGS-11U05505852022-12-07 01:18:10-29.6345-50.776751678357Clb=-4.3m/s t=-23.8C h=2.7% p=360.2hPa 403.001 MHz Type=RS41-SGP ser=U0550585 Radiosonde By PU3XGS
PU3IKE-1U05505852022-12-07 01:18:00-29.6356-50.778251698396Clb=-3.4m/s t=-23.7C h=2.2% p=358.3hPa 403.001 MHz Type=RS41-SGP RSonde auto_rx v1.5.9
PU3XGS-12U05505852022-12-07 01:17:44-29.6371-50.780452698448Clb=-3.9m/s p=355.7hPa t=-23.6C h=1.5% 403.000MHz Type=RS41-SGP TxOff=7h49m rdzTTGOsonde
PU3IKE-1U05505852022-12-07 01:17:30-29.6388-50.783260658514Clb=-3.4m/s t=-23.7C h=1.2% p=352.6hPa 403.001 MHz Type=RS41-SGP RSonde auto_rx v1.5.9
PU3XGS-12U05505852022-12-07 01:17:14-29.6399-50.785251598567Clb=-3.3m/s p=350.0hPa t=-24.0C h=1.3% 403.000MHz Type=RS41-SGP TxOff=7h50m rdzTTGOsonde
PU3XGS-11U05505852022-12-07 01:17:08-29.6407-50.786146638592Clb=-3.1m/s t=-24.2C h=1.4% p=348.8hPa 403.001 MHz Type=RS41-SGP ser=U0550585 Radiosonde By PU3XGS
PY3UEB-11U05505852022-12-07 01:17:00-29.6416-50.787246678623Clb=-3.9m/s t=-24.5C h=1.4% p=347.2hPa 403.001 MHz Type=RS41-SGP ser=U0550585 Radiosonde auto_rx v1.5.9
PU3XGS-12U05505852022-12-07 01:16:43-29.6435-50.789445708687Clb=-4.1m/s p=344.2hPa t=-25.1C h=1.6% 403.000MHz Type=RS41-SGP TxOff=7h51m rdzTTGOsonde
PY3UEB-11U05505852022-12-07 01:16:30-29.6453-50.791442728740Clb=-4.8m/s t=-25.6C h=1.7% p=341.7hPa 403.001 MHz Type=RS41-SGP ser=U0550585 Radiosonde auto_rx v1.5.9
PU3XGS-12U05505852022-12-07 01:16:12-29.6476-50.793842788810Clb=-3.9m/s p=338.5hPa t=-26.2C h=1.8% 403.000MHz Type=RS41-SGP TxOff=7h51m rdzTTGOsonde
PU3XGS-11U05505852022-12-07 01:16:06-29.6486-50.794843808837Clb=-4.2m/s t=-26.4C h=1.9% p=337.2hPa 403.001 MHz Type=RS41-SGP ser=U0550585 Radiosonde By PU3XGS
PY3UEB-11U05505852022-12-07 01:16:00-29.6495-50.795947838861Clb=-3.6m/s t=-26.6C h=1.9% p=336.1hPa 403.001 MHz Type=RS41-SGP ser=U0550585 Radiosonde auto_rx v1.5.9
PU3XGS-12U05505852022-12-07 01:15:45-29.6519-50.799145728932Clb=-4.1m/s p=333.1hPa t=-27.2C h=2.0% 403.000MHz Type=RS41-SGP TxOff=7h51m rdzTTGOsonde
PY3UEB-11U05505852022-12-07 01:15:30-29.6535-50.800737808977Clb=-4.3m/s t=-27.6C h=2.1% p=330.9hPa 403.001 MHz Type=RS41-SGP ser=U0550585 Radiosonde auto_rx v1.5.9
PU3XGS-12U05505852022-12-07 01:15:20-29.6568-50.803639969049Clb=-4.7m/s p=327.7hPa t=-28.0C h=2.1% 403.000MHz Type=RS41-SGP TxOff=7h51m rdzTTGOsonde
PU3XGS-11U05505852022-12-07 01:15:04-29.6582-50.8049401029077Clb=-3.9m/s t=-28.1C h=2.0% p=326.3hPa 403.001 MHz Type=RS41-SGP ser=U0550585 Radiosonde By PU3XGS
PY3UEB-11U05505852022-12-07 01:15:00-29.659-50.8057431069093Clb=-4.1m/s t=-28.1C h=1.9% p=325.5hPa 403.001 MHz Type=RS41-SGP ser=U0550585 Radiosonde auto_rx v1.5.9
PU3XGS-12U05505852022-12-07 01:14:53-29.6623-50.8094421009163Clb=-3.7m/s p=322.5hPa t=-27.7C h=1.6% 403.000MHz Type=RS41-SGP TxOff=7h52m rdzTTGOsonde
PU3IKE-1U05505852022-12-07 01:14:30-29.6644-50.8115401009203Clb=-3.6m/s t=-27.7C h=1.5% p=320.6hPa 403.001 MHz Type=RS41-SGP RSonde auto_rx v1.5.9
PU3XGS-12U05505852022-12-07 01:14:29-29.6682-50.8152421119273Clb=-4.0m/s p=317.5hPa t=-28.2C h=1.6% 403.000MHz Type=RS41-SGP TxOff=7h53m rdzTTGOsonde
PU3XGS-11U05505852022-12-07 01:14:02-29.6701-50.8172441139307Clb=-3.8m/s t=-28.4C h=1.5% p=316.0hPa 403.001 MHz Type=RS41-SGP ser=U0550585 Radiosonde By PU3XGS
PY3UEB-11U05505852022-12-07 01:14:00-29.6705-50.8176441139315Clb=-3.5m/s t=-28.5C h=1.5% p=315.7hPa 403.001 MHz Type=RS41-SGP ser=U0550585 Radiosonde auto_rx v1.5.9
PY3UEB-11U05505852022-12-07 01:13:30-29.676-50.824546989431Clb=-3.8m/s t=-29.5C h=1.6% p=310.6hPa 403.001 MHz Type=RS41-SGP ser=U0550585 Radiosonde auto_rx v1.5.9
PU3XGS-11U05505852022-12-07 01:13:00-29.6814-50.8306401119550Clb=-4.2m/s t=-30.3C h=1.6% p=305.4hPa 403.001 MHz Type=RS41-SGP ser=U0550585 Radiosonde By PU3XGS
PY3UEB-11U05505852022-12-07 01:12:30-29.6871-50.8368381099672Clb=-4.7m/s t=-31.4C h=1.7% p=300.3hPa 403.001 MHz Type=RS41-SGP ser=U0550585 Radiosonde auto_rx v1.5.9
PU3XGS-11U05505852022-12-07 01:12:28-29.6873-50.837381099676Clb=-4.3m/s t=-31.4C h=1.8% p=300.1hPa 403.001 MHz Type=RS41-SGP ser=U0550585 Radiosonde By PU3XGS
PY3UEB-11U05505852022-12-07 01:12:00-29.6931-50.8437461179798Clb=-3.9m/s t=-32.1C h=1.6% p=295.0hPa 403.001 MHz Type=RS41-SGP ser=U0550585 Radiosonde auto_rx v1.5.9
PY3UEB-11U05505852022-12-07 01:11:30-29.6994-50.851471229924Clb=-4.6m/s t=-32.7C h=1.5% p=289.8hPa 403.001 MHz Type=RS41-SGP ser=U0550585 Radiosonde auto_rx v1.5.9
PY3UEB-11U05505852022-12-07 01:11:00-29.7053-50.85834111710050Clb=-4.3m/s t=-33.8C h=1.7% p=284.7hPa 403.001 MHz Type=RS41-SGP ser=U0550585 Radiosonde auto_rx v1.5.9
PY3UEB-11U05505852022-12-07 01:10:30-29.7119-50.86584112010181Clb=-3.9m/s t=-34.8C h=2.1% p=279.4hPa 403.001 MHz Type=RS41-SGP ser=U0550585 Radiosonde auto_rx v1.5.9
PU3XGS-11U05505852022-12-07 01:10:24-29.7133-50.86734013010207Clb=-4.4m/s t=-35.1C h=2.1% p=278.3hPa 403.001 MHz Type=RS41-SGP ser=U0550585 Radiosonde By PU3XGS
PY3UEB-11U05505852022-12-07 01:10:00-29.7191-50.87394812410315Clb=-4.5m/s t=-35.9C h=2.4% p=274.0hPa 403.001 MHz Type=RS41-SGP ser=U0550585 Radiosonde auto_rx v1.5.9
PY3UEB-11U05505852022-12-07 01:09:30-29.7258-50.88194511710447Clb=-4.9m/s t=-36.7C h=2.8% p=268.9hPa 403.001 MHz Type=RS41-SGP ser=U0550585 Radiosonde auto_rx v1.5.9
PU3XGS-11U05505852022-12-07 01:09:22-29.7276-50.88384213010482Clb=-4.5m/s t=-37.0C h=2.6% p=267.4hPa 403.001 MHz Type=RS41-SGP ser=U0550585 Radiosonde By PU3XGS
PY3UEB-11U05505852022-12-07 01:09:00-29.7326-50.89014410910588Clb=-4.4m/s t=-37.8C h=2.4% p=263.5hPa 403.001 MHz Type=RS41-SGP ser=U0550585 Radiosonde auto_rx v1.5.9
PY3UEB-11U05505852022-12-07 01:08:30-29.7396-50.89783811910734Clb=-5.3m/s t=-39.0C h=2.9% p=257.9hPa 403.001 MHz Type=RS41-SGP ser=U0550585 Radiosonde auto_rx v1.5.9
PU3XGS-11U05505852022-12-07 01:08:20-29.7408-50.89894412610758Clb=-4.1m/s t=-39.2C h=2.9% p=257.1hPa 403.001 MHz Type=RS41-SGP ser=U0550585 Radiosonde By PU3XGS
PY3UEB-11U05505852022-12-07 01:08:00-29.7446-50.90353710910848Clb=-4.5m/s t=-39.6C h=2.5% p=253.8hPa 403.001 MHz Type=RS41-SGP ser=U0550585 Radiosonde auto_rx v1.5.9
PU3XGS-12U05505852022-12-07 01:07:57-29.7496-50.909399410963Clb=-4.7m/s p=249.6hPa t=-40.4C h=2.5% 403.000MHz Type=RS41-SGP TxOff=7h59m rdzTTGOsonde
PU3IKE-1U05505852022-12-07 01:07:30-29.7506-50.90983710610985Clb=-4.2m/s t=-40.5C h=2.4% p=248.8hPa 403.001 MHz Type=RS41-SGP RSonde auto_rx v1.5.9
PU3XGS-11U05505852022-12-07 01:07:18-29.7528-50.91224610011031Clb=-4.3m/s t=-40.8C h=2.4% p=247.1hPa 403.001 MHz Type=RS41-SGP ser=U0550585 Radiosonde By PU3XGS
PY3UEB-11U05505852022-12-07 01:07:00-29.7558-50.9155398911107Clb=-4.3m/s t=-41.2C h=2.3% p=244.4hPa 403.001 MHz Type=RS41-SGP ser=U0550585 Radiosonde auto_rx v1.5.9
PU3XGS-12U05505852022-12-07 01:06:48-29.7609-50.92034410411218Clb=-4.3m/s p=240.4hPa t=-41.7C h=2.3% 403.000MHz Type=RS41-SGP TxOff=8h1m rdzTTGOsonde
PU3IKE-1U05505852022-12-07 01:06:30-29.7615-50.92094310411230Clb=-4.8m/s t=-41.7C h=2.2% p=240.0hPa 403.001 MHz Type=RS41-SGP RSonde auto_rx v1.5.9
PU3XGS-11U05505852022-12-07 01:06:16-29.764-50.92394810411290Clb=-4.6m/s t=-42.1C h=2.2% p=237.9hPa 403.001 MHz Type=RS41-SGP ser=U0550585 Radiosonde By PU3XGS
PU3XGS-12U05505852022-12-07 01:06:15-29.7663-50.9269479311350Clb=-4.5m/s p=235.9hPa t=-42.5C h=2.3% 403.000MHz Type=RS41-SGP TxOff=8h1m rdzTTGOsonde
PY3UEB-11U05505852022-12-07 01:06:00-29.7666-50.9273449311357Clb=-3.8m/s t=-42.6C h=2.3% p=235.6hPa 403.001 MHz Type=RS41-SGP ser=U0550585 Radiosonde auto_rx v1.5.9
PU3XGS-12U05505852022-12-07 01:05:40-29.7716-50.9332539611477Clb=-4.3m/s p=231.4hPa t=-43.3C h=2.3% 403.000MHz Type=RS41-SGP TxOff=8h2m rdzTTGOsonde
PU3IKE-1U05505852022-12-07 01:05:30-29.7719-50.9336529311485Clb=-4.3m/s t=-43.3C h=2.3% p=231.2hPa 403.001 MHz Type=RS41-SGP RSonde auto_rx v1.5.9
PU3XGS-11U05505852022-12-07 01:05:14-29.774-50.9368508011556Clb=-4.7m/s t=-43.6C h=2.2% p=228.7hPa 403.001 MHz Type=RS41-SGP ser=U0550585 Radiosonde By PU3XGS
PU3XGS-12U05505852022-12-07 01:05:06-29.7757-50.9389487611615Clb=-4.3m/s p=226.7hPa t=-43.9C h=2.2% 403.000MHz Type=RS41-SGP TxOff=8h2m rdzTTGOsonde
PU3IKE-1U05505852022-12-07 01:05:00-29.7759-50.939487411620Clb=-4.1m/s t=-43.9C h=2.1% p=226.6hPa 403.001 MHz Type=RS41-SGP RSonde auto_rx v1.5.9
PU3XGS-12U05505852022-12-07 01:04:33-29.7792-50.9443588011747Clb=-4.5m/s p=222.3hPa t=-44.7C h=2.2% 403.000MHz Type=RS41-SGP TxOff=8h2m rdzTTGOsonde
PU3IKE-1U05505852022-12-07 01:04:30-29.7793-50.9445568011751Clb=-4.7m/s t=-44.8C h=2.2% p=222.2hPa 403.001 MHz Type=RS41-SGP RSonde auto_rx v1.5.9
PU3XGS-11U05505852022-12-07 01:04:12-29.7811-50.9479637011831Clb=-4.9m/s t=-45.2C h=2.2% p=219.6hPa 403.001 MHz Type=RS41-SGP ser=U0550585 Radiosonde By PU3XGS
PY3UEB-11U05505852022-12-07 01:04:00-29.7828-50.9514567811912Clb=-4.1m/s t=-45.7C h=2.0% p=216.9hPa 403.001 MHz Type=RS41-SGP ser=U0550585 Radiosonde auto_rx v1.5.9
PU3XGS-12U05505852022-12-07 01:03:29-29.7854-50.9556517012016Clb=-4.7m/s p=213.6hPa t=-46.1C h=2.2% 403.000MHz Type=RS41-SGP TxOff=8h3m rdzTTGOsonde
PU3XGS-11U05505852022-12-07 01:03:10-29.7874-50.9588556512111Clb=-4.5m/s t=-46.9C h=2.5% p=210.5hPa 403.001 MHz Type=RS41-SGP ser=U0550585 Radiosonde By PU3XGS
PU3IKE-1U05505852022-12-07 01:03:00-29.7885-50.9604507812156Clb=-4.8m/s t=-47.3C h=2.5% p=209.2hPa 403.001 MHz Type=RS41-SGP RSonde auto_rx v1.5.9
PU3XGS-12U05505852022-12-07 01:02:59-29.7885-50.9604527812156Clb=-4.8m/s p=209.1hPa t=-47.2C h=2.5% 403.000MHz Type=RS41-SGP TxOff=8h4m rdzTTGOsonde
PU3IKE-1U05505852022-12-07 01:02:30-29.7913-50.9663547212300Clb=-4.8m/s t=-48.3C h=2.3% p=204.7hPa 403.001 MHz Type=RS41-SGP RSonde auto_rx v1.5.9
PU3XGS-12U05505852022-12-07 01:02:29-29.7913-50.9663557412300Clb=-4.8m/s p=204.7hPa t=-48.3C h=2.3% 403.000MHz Type=RS41-SGP TxOff=8h4m rdzTTGOsonde
PY3UEB-11U05505852022-12-07 01:02:00-29.7943-50.9724589312456Clb=-5.7m/s t=-49.6C h=2.8% p=199.9hPa 403.001 MHz Type=RS41-SGP ser=U0550585 Radiosonde auto_rx v1.5.9
PU3XGS-12U05505852022-12-07 01:01:59-29.7943-50.9723609312456Clb=-5.7m/s p=199.9hPa t=-49.6C h=2.9% 403.000MHz Type=RS41-SGP TxOff=8h5m rdzTTGOsonde
PU3XGS-11U05505852022-12-07 01:01:36-29.7966-50.9774609412584Clb=-5.3m/s t=-50.8C h=3.2% p=196.0hPa 403.001 MHz Type=RS41-SGP ser=U0550585 Radiosonde By PU3XGS
PY3UEB-11U05505852022-12-07 01:01:30-29.7972-50.9788698312616Clb=-5.4m/s t=-51.1C h=3.3% p=195.2hPa 403.001 MHz Type=RS41-SGP ser=U0550585 Radiosonde auto_rx v1.5.9
PU3XGS-12U05505852022-12-07 01:01:28-29.7972-50.979718012621Clb=-5.1m/s p=194.9hPa t=-51.2C h=3.4% 403.000MHz Type=RS41-SGP TxOff=8h6m rdzTTGOsonde
PU3XGS-12U05505852022-12-07 01:00:57-29.8002-50.9853557812784Clb=-4.9m/s p=190.0hPa t=-52.7C h=4.2% 403.000MHz Type=RS41-SGP TxOff=8h6m rdzTTGOsonde
PU3XGS-11U05505852022-12-07 01:00:34-29.8025-50.9905598112909Clb=-4.5m/s t=-54.0C h=5.1% p=186.4hPa 403.001 MHz Type=RS41-SGP ser=U0550585 Radiosonde By PU3XGS
PU3IKE-1U05505852022-12-07 01:00:30-29.8038-50.9931689612968Clb=-5.5m/s t=-54.4C h=5.2% p=184.7hPa 403.001 MHz Type=RS41-SGP RSonde auto_rx v1.5.9
PY3UEB-11U05505852022-12-07 01:00:00-29.8059-50.9994647413117Clb=-5.2m/s t=-55.2C h=4.2% p=180.5hPa 403.001 MHz Type=RS41-SGP ser=U0550585 Radiosonde auto_rx v1.5.9
PU3XGS-11U05505852022-12-07 00:59:32-29.8082-51.0041667213249Clb=-5.3m/s t=-55.5C h=3.7% p=176.9hPa 403.001 MHz Type=RS41-SGP ser=U0550585 Radiosonde By PU3XGS
PY3UEB-11U05505852022-12-07 00:59:30-29.8089-51.0054526513293Clb=-5.0m/s t=-55.8C h=3.8% p=175.7hPa 403.001 MHz Type=RS41-SGP ser=U0550585 Radiosonde auto_rx v1.5.9
PU3IKE-1U05505852022-12-07 00:59:00-29.8112-51.0094477013417Clb=-5.5m/s t=-56.7C h=-1.0% p=172.2hPa 403.001 MHz Type=RS41-SGP RSonde auto_rx v1.5.9
PU3XGS-11U05505852022-12-07 00:58:30-29.8145-51.0144527813577Clb=-5.9m/s t=-58.0C h=5.3% p=168.0hPa 403.001 MHz Type=RS41-SGP ser=U0550585 Radiosonde By PU3XGS
PU3IKE-1U05505852022-12-07 00:58:00-29.8178-51.0189404313764Clb=-5.8m/s t=-59.2C h=-1.0% p=163.0hPa 403.001 MHz Type=RS41-SGP RSonde auto_rx v1.5.9
PY3UEB-11U05505852022-12-07 00:57:30-29.8202-51.0213273713910Clb=-6.0m/s t=-60.1C h=6.8% p=159.3hPa 403.001 MHz Type=RS41-SGP ser=U0550585 Radiosonde auto_rx v1.5.9
PU3XGS-11U05505852022-12-07 00:57:28-29.8204-51.0214254413922Clb=-5.9m/s t=-60.3C h=6.9% p=159.0hPa 403.001 MHz Type=RS41-SGP ser=U0550585 Radiosonde By PU3XGS
PU3IKE-1U05505852022-12-07 00:57:00-29.8226-51.0236554414086Clb=-6.5m/s t=-273.0C h=-1.0% p=-1.0hPa 403.001 MHz Type=RS41-SGP RSonde auto_rx v1.5.9
PY3UEB-11U05505852022-12-07 00:56:30-29.8243-51.0257253314289Clb=-6.5m/s t=-63.4C h=8.0% p=149.9hPa 403.001 MHz Type=RS41-SGP ser=U0550585 Radiosonde auto_rx v1.5.9
PU3XGS-11U05505852022-12-07 00:56:26-29.8243-51.0257253314289Clb=-6.5m/s t=-63.4C h=8.0% p=149.9hPa 403.001 MHz Type=RS41-SGP ser=U0550585 Radiosonde By PU3XGS
PY3UEB-11U05505852022-12-07 00:56:00-29.8253-51.0273533114450Clb=-6.0m/s t=-64.5C h=7.7% p=146.1hPa 403.001 MHz Type=RS41-SGP ser=U0550585 Radiosonde auto_rx v1.5.9
PY3UEB-11U05505852022-12-07 00:55:30-29.8255-51.02951143314635Clb=-6.7m/s t=-65.5C h=6.6% p=141.7hPa 403.001 MHz Type=RS41-SGP ser=U0550585 Radiosonde auto_rx v1.5.9
PU3XGS-11U05505852022-12-07 00:55:24-29.8253-51.02991181514672Clb=-6.6m/s t=-65.8C h=6.5% p=140.9hPa 403.001 MHz Type=RS41-SGP ser=U0550585 Radiosonde By PU3XGS
PY3UEB-11U05505852022-12-07 00:55:00-29.825-51.0319712014831Clb=-6.5m/s t=-66.5C h=6.2% p=137.2hPa 403.001 MHz Type=RS41-SGP ser=U0550585 Radiosonde auto_rx v1.5.9
PY3UEB-11U05505852022-12-07 00:54:30-29.825-51.0341663015013Clb=-6.2m/s t=-66.5C h=6.1% p=133.2hPa 403.001 MHz Type=RS41-SGP ser=U0550585 Radiosonde auto_rx v1.5.9
PU3XGS-11U05505852022-12-07 00:54:22-29.825-51.03491133315063Clb=-6.5m/s t=-66.5C h=6.1% p=132.1hPa 403.001 MHz Type=RS41-SGP ser=U0550585 Radiosonde By PU3XGS
PY3UEB-11U05505852022-12-07 00:54:00-29.8244-51.0364135615232Clb=-6.3m/s t=-67.0C h=6.4% p=128.4hPa 403.001 MHz Type=RS41-SGP ser=U0550585 Radiosonde auto_rx v1.5.9
PU3IKE-1U05505852022-12-07 00:53:30-29.8239-51.0377902415401Clb=-6.9m/s t=-273.0C h=-1.0% p=-1.0hPa 403.001 MHz Type=RS41-SGP RSonde auto_rx v1.5.9
PU3XGS-11U05505852022-12-07 00:53:20-29.8236-51.03841491915468Clb=-6.7m/s t=-68.0C h=6.6% p=123.6hPa 403.001 MHz Type=RS41-SGP ser=U0550585 Radiosonde By PU3XGS
PY3UEB-11U05505852022-12-07 00:53:00-29.8231-51.0392213715625Clb=-6.8m/s t=-69.2C h=7.1% p=120.4hPa 403.001 MHz Type=RS41-SGP ser=U0550585 Radiosonde auto_rx v1.5.9
PU3IKE-1U05505852022-12-07 00:52:30-29.8226-51.0397981515803Clb=-6.8m/s t=-273.0C h=-1.0% p=-1.0hPa 403.001 MHz Type=RS41 RSonde auto_rx v1.5.9
PU3XGS-11U05505852022-12-07 00:52:18-29.822-51.042072215876Clb=-6.3m/s t=-69.9C h=7.4% p=115.5hPa 403.001 MHz Type=RS41-SGP ser=U0550585 Radiosonde By PU3XGS
PU3IKE-1U05505852022-12-07 00:52:00-29.8214-51.04031131916061Clb=-7.2m/s t=-273.0C h=-1.0% p=-1.0hPa 403.001 MHz Type=RS41 RSonde auto_rx v1.5.9
PY3UEB-11U05505852022-12-07 00:51:30-29.8206-51.0399265716264Clb=-6.7m/s t=-70.7C h=8.2% p=108.2hPa 403.001 MHz Type=RS41-SGP ser=U0550585 Radiosonde auto_rx v1.5.9
PY3UEB-11U05505852022-12-07 00:51:00-29.8194-51.03981753716424Clb=-6.9m/s t=-70.8C h=8.6% p=105.3hPa 403.001 MHz Type=RS41-SGP ser=U0550585 Radiosonde auto_rx v1.5.9
PU3XGS-11U05505852022-12-07 00:50:44-29.8186-51.03961563516524Clb=-7.3m/s t=-70.6C h=8.4% p=103.5hPa 403.001 MHz Type=RS41-SGP ser=U0550585 Radiosonde By PU3XGS
PU3IKE-1U05505852022-12-07 00:50:30-29.8174-51.03951503716633Clb=-7.6m/s t=-273.0C h=-1.0% p=-1.0hPa 403.001 MHz Type=RS41 RSonde auto_rx v1.5.9
PY3UEB-11U05505852022-12-07 00:50:00-29.815-51.03991311316848Clb=-7.6m/s t=-71.9C h=9.0% p=98.1hPa 403.001 MHz Type=RS41-SGP ser=U0550585 Radiosonde auto_rx v1.5.9
PU3XGS-11U05505852022-12-07 00:49:42-29.8141-51.0407953016991Clb=-7.6m/s t=-72.6C h=9.4% p=95.7hPa 403.001 MHz Type=RS41-SGP ser=U0550585 Radiosonde By PU3XGS
PY3UEB-11U05505852022-12-07 00:49:30-29.8136-51.0412244417075Clb=-8.0m/s t=-72.8C h=9.5% p=94.4hPa 403.001 MHz Type=RS41-SGP ser=U0550585 Radiosonde auto_rx v1.5.9
PY3UEB-11U05505852022-12-07 00:49:00-29.8138-51.0426194417308Clb=-8.1m/s t=-73.0C h=9.0% p=90.7hPa 403.001 MHz Type=RS41-SGP ser=U0550585 Radiosonde auto_rx v1.5.9
PU3XGS-11U05505852022-12-07 00:48:40-29.8142-51.04323561917465Clb=-8.0m/s t=-73.7C h=9.4% p=88.3hPa 403.001 MHz Type=RS41-SGP ser=U0550585 Radiosonde By PU3XGS
PY3UEB-11U05505852022-12-07 00:48:30-29.8144-51.04371362417546Clb=-7.9m/s t=-74.0C h=9.1% p=87.1hPa 403.001 MHz Type=RS41-SGP ser=U0550585 Radiosonde auto_rx v1.5.9
PU3IKE-1U05505852022-12-07 00:48:00-29.8131-51.04432182017853Clb=-7.9m/s t=-273.0C h=-1.0% p=-1.0hPa 403.001 MHz Type=RS41 RSonde auto_rx v1.5.9
PU3XGS-11U05505852022-12-07 00:47:38-29.8125-51.04471872417967Clb=-7.7m/s t=-76.2C h=8.7% p=81.1hPa 403.001 MHz Type=RS41-SGP ser=U0550585 Radiosonde By PU3XGS
PU3IKE-1U05505852022-12-07 00:47:30-29.8122-51.0453238618113Clb=-8.0m/s t=-273.0C h=-1.0% p=-1.0hPa 403.001 MHz Type=RS41 RSonde auto_rx v1.5.9
PU3IKE-1U05505852022-12-07 00:47:00-29.8127-51.04582963018385Clb=-8.6m/s t=-273.0C h=-1.0% p=-1.0hPa 403.001 MHz Type=RS41 RSonde auto_rx v1.5.9
PU3XGS-11U05505852022-12-07 00:46:36-29.8132-51.04572421318494Clb=-8.2m/s t=-76.3C h=7.1% p=74.0hPa 403.001 MHz Type=RS41-SGP ser=U0550585 Radiosonde By PU3XGS
PU3IKE-1U05505852022-12-07 00:46:30-29.8132-51.04553063318526Clb=-8.5m/s t=-273.0C h=-1.0% p=-1.0hPa 403.001 MHz Type=RS41 RSonde auto_rx v1.5.9
PY3UEB-11U05505852022-12-07 00:46:00-29.8139-51.04482422818784Clb=-8.8m/s t=-75.1C h=6.5% p=70.4hPa 403.001 MHz Type=RS41-SGP ser=U0550585 Radiosonde auto_rx v1.5.9
PU3XGS-11U05505852022-12-07 00:45:34-29.8142-51.0441711519006Clb=-9.1m/s t=-73.4C h=5.4% p=67.7hPa 403.001 MHz Type=RS41-SGP ser=U0550585 Radiosonde By PU3XGS
PY3UEB-11U05505852022-12-07 00:45:30-29.8141-51.04412481719048Clb=-9.1m/s t=-73.1C h=5.2% p=67.3hPa 403.001 MHz Type=RS41-SGP ser=U0550585 Radiosonde auto_rx v1.5.9
PY3UEB-11U05505852022-12-07 00:45:00-29.8154-51.0442942419340Clb=-9.6m/s t=-72.6C h=4.4% p=64.0hPa 403.001 MHz Type=RS41-SGP ser=U0550585 Radiosonde auto_rx v1.5.9
PU3XGS-12U05505852022-12-07 00:44:47-29.8169-51.04293583019568Clb=-10.7m/s p=61.6hPa t=-72.3C h=4.1% 403.000MHz Type=RS41-SGP TxOff=8h23m rdzTTGOsonde
PU3XGS-11U05505852022-12-07 00:44:32-29.8169-51.042981719578Clb=-10.1m/s t=-72.2C h=4.1% p=61.5hPa 403.001 MHz Type=RS41-SGP ser=U0550585 Radiosonde By PU3XGS
PY3UEB-11U05505852022-12-07 00:44:30-29.8169-51.04272523719635Clb=-9.9m/s t=-72.0C h=3.8% p=60.9hPa 403.001 MHz Type=RS41-SGP ser=U0550585 Radiosonde auto_rx v1.5.9
PU3XGS-12U05505852022-12-07 00:44:02-29.8172-51.04133533319860Clb=-11.0m/s p=58.6hPa t=-72.2C h=3.9% 403.000MHz Type=RS41-SGP TxOff=8h23m rdzTTGOsonde
PY3UEB-11U05505852022-12-07 00:44:00-29.8173-51.04122673119951Clb=-10.1m/s t=-71.3C h=3.6% p=57.7hPa 403.001 MHz Type=RS41-SGP ser=U0550585 Radiosonde auto_rx v1.5.9
PU3XGS-12U05505852022-12-07 00:43:32-29.8186-51.04013295620166Clb=-10.6m/s p=55.7hPa t=-71.1C h=3.4% 403.000MHz Type=RS41-SGP TxOff=8h24m rdzTTGOsonde
PU3XGS-11U05505852022-12-07 00:43:30-29.819-51.043544120197Clb=-9.8m/s t=-71.3C h=3.4% p=55.4hPa 403.001 MHz Type=RS41-SGP ser=U0550585 Radiosonde By PU3XGS
PU3XGS-12U05505852022-12-07 00:43:02-29.8201-51.03812906120476Clb=-11.8m/s p=52.9hPa t=-69.5C h=3.2% 403.000MHz Type=RS41-SGP TxOff=8h24m rdzTTGOsonde
PU3XGS-11U05505852022-12-07 00:42:58-29.8205-51.03763332620530Clb=-11.0m/s t=-69.0C h=3.0% p=52.4hPa 403.001 MHz Type=RS41-SGP ser=U0550585 Radiosonde By PU3XGS
PU3XGS-12U05505852022-12-07 00:42:36-29.8203-51.03492796120820Clb=-11.8m/s p=50.1hPa t=-68.0C h=2.5% 403.000MHz Type=RS41-SGP TxOff=8h25m rdzTTGOsonde
PU3XGS-12U05505852022-12-07 00:42:00-29.8194-51.03262575621146Clb=-11.8m/s p=47.3hPa t=-67.6C h=2.4% 403.000MHz Type=RS41-SGP TxOff=8h25m rdzTTGOsonde
PU3XGS-11U05505852022-12-07 00:41:56-29.8195-51.0323232421201Clb=-10.0m/s t=-66.9C h=2.2% p=46.9hPa 403.001 MHz Type=RS41-SGP ser=U0550585 Radiosonde By PU3XGS
PU3XGS-12U05505852022-12-07 00:41:51-29.8188-51.02952204421842Clb=-11.6m/s p=42.3hPa t=-64.9C h=1.9% 403.000MHz Type=RS41-SGP TxOff=8h26m rdzTTGOsonde
PY3UEB-11U05505852022-12-07 00:41:00-29.8186-51.02922703921874Clb=-12.2m/s t=-65.1C h=1.8% p=42.0hPa 403.001 MHz Type=RS41-SGP ser=U0550585 Radiosonde auto_rx v1.5.9
PU3XGS-11U05505852022-12-07 00:40:54-29.8187-51.0292982421898Clb=-12.2m/s t=-65.2C h=1.9% p=41.9hPa 403.001 MHz Type=RS41-SGP ser=U0550585 Radiosonde By PU3XGS
PY3UEB-11U05505852022-12-07 00:40:30-29.8175-51.02832414122229Clb=-12.7m/s t=-65.2C h=1.7% p=39.6hPa 403.001 MHz Type=RS41-SGP ser=U0550585 Radiosonde auto_rx v1.5.9
PY3UEB-11U05505852022-12-07 00:40:00-29.8174-51.0282463322630Clb=-13.0m/s t=-63.4C h=1.6% p=37.2hPa 403.001 MHz Type=RS41-SGP ser=U0550585 Radiosonde auto_rx v1.5.9
PU3XGS-11U05505852022-12-07 00:39:52-29.8174-51.02772993322667Clb=-13.5m/s t=-63.1C h=1.6% p=36.9hPa 403.001 MHz Type=RS41-SGP ser=U0550585 Radiosonde By PU3XGS
PY3UEB-11U05505852022-12-07 00:39:30-29.8182-51.027362623145Clb=-13.5m/s t=-61.3C h=1.4% p=34.2hPa 403.001 MHz Type=RS41-SGP ser=U0550585 Radiosonde auto_rx v1.5.9
PU3XGS-11U05505852022-12-07 00:38:50-29.8176-51.02712583023486Clb=-13.9m/s t=-60.6C h=1.3% p=32.4hPa 403.001 MHz Type=RS41-SGP ser=U0550585 Radiosonde By PU3XGS
PY3UEB-11U05505852022-12-07 00:38:30-29.8182-51.02633133923781Clb=-14.7m/s t=-60.1C h=1.2% p=30.9hPa 403.001 MHz Type=RS41-SGP ser=U0550585 Radiosonde auto_rx v1.5.9
PY3UEB-11U05505852022-12-07 00:38:00-29.8186-51.0253404424275Clb=-15.8m/s t=-59.4C h=1.2% p=28.6hPa 403.001 MHz Type=RS41-SGP ser=U0550585 Radiosonde auto_rx v1.5.9
PU3XGS-11U05505852022-12-07 00:37:48-29.8189-51.02521412024363Clb=-15.4m/s t=-58.6C h=1.1% p=28.2hPa 403.001 MHz Type=RS41-SGP ser=U0550585 Radiosonde By PU3XGS
PY3UEB-11U05505852022-12-07 00:37:30-29.8186-51.02393072424770Clb=-14.5m/s t=-57.7C h=1.1% p=26.4hPa 403.001 MHz Type=RS41-SGP ser=U0550585 Radiosonde auto_rx v1.5.9
PY3UEB-11U05505852022-12-07 00:37:00-29.8187-51.024332025442Clb=-30.4m/s t=-56.1C h=0.9% p=23.8hPa 403.001 MHz Type=RS41-SGP ser=U0550585 Radiosonde auto_rx v1.5.9
PY3UEB-11U05505852022-12-07 00:36:30-29.819-51.0243251325525Clb=5.0m/s t=-56.4C h=0.9% p=23.5hPa 403.001 MHz Type=RS41-SGP ser=U0550585 Radiosonde auto_rx v1.5.9
PU3XGS-11U05505852022-12-07 00:36:14-29.8195-51.0245491325452Clb=5.9m/s t=-57.0C h=1.0% p=23.8hPa 403.001 MHz Type=RS41-SGP ser=U0550585 Radiosonde By PU3XGS
PY3UEB-11U05505852022-12-07 00:36:00-29.8197-51.0247891125360Clb=6.0m/s t=-56.4C h=1.0% p=24.1hPa 403.001 MHz Type=RS41-SGP ser=U0550585 Radiosonde auto_rx v1.5.9
PU3XGS-11U05505852022-12-07 00:35:12-29.8194-51.02452681525070Clb=5.4m/s t=-56.6C h=0.9% p=25.2hPa 403.001 MHz Type=RS41-SGP ser=U0550585 Radiosonde By PU3XGS
PY3UEB-11U05505852022-12-07 00:35:00-29.8193-51.0244103424943Clb=6.6m/s t=-56.9C h=0.9% p=25.7hPa 403.001 MHz Type=RS41-SGP ser=U0550585 Radiosonde auto_rx v1.5.9
PU3XGS-11U05505852022-12-07 00:34:10-29.8194-51.0246284724693Clb=6.6m/s t=-58.0C h=1.0% p=26.8hPa 403.001 MHz Type=RS41-SGP ser=U0550585 Radiosonde By PU3XGS
PY3UEB-11U05505852022-12-07 00:34:00-29.8195-51.02393041724578Clb=5.0m/s t=-58.2C h=1.0% p=27.2hPa 403.001 MHz Type=RS41-SGP ser=U0550585 Radiosonde auto_rx v1.5.9
PU3IKE-1U05505852022-12-07 00:33:30-29.8197-51.02242681524373Clb=7.7m/s t=-273.0C h=-1.0% p=-1.0hPa 403.001 MHz Type=RS41 RSonde auto_rx v1.5.9
PU3XGS-11U05505852022-12-07 00:33:08-29.8198-51.0221295724308Clb=5.6m/s t=-59.2C h=1.0% p=28.4hPa 403.001 MHz Type=RS41-SGP ser=U0550585 Radiosonde By PU3XGS
PY3UEB-11U05505852022-12-07 00:33:00-29.8207-51.02063041924109Clb=4.4m/s t=-59.9C h=1.1% p=29.3hPa 403.001 MHz Type=RS41-SGP ser=U0550585 Radiosonde auto_rx v1.5.9
PY3UEB-11U05505852022-12-07 00:32:30-29.8209-51.0202259924047Clb=6.8m/s t=-59.9C h=1.1% p=29.6hPa 403.001 MHz Type=RS41-SGP ser=U0550585 Radiosonde auto_rx v1.5.9
PU3XGS-11U05505852022-12-07 00:32:06-29.8209-51.0199330723924Clb=6.0m/s t=-59.9C h=1.1% p=30.2hPa 403.001 MHz Type=RS41-SGP ser=U0550585 Radiosonde By PU3XGS
PY3UEB-11U05505852022-12-07 00:32:00-29.8208-51.01973121523847Clb=5.0m/s t=-60.0C h=1.1% p=30.6hPa 403.001 MHz Type=RS41-SGP ser=U0550585 Radiosonde auto_rx v1.5.9
PY3UEB-11U05505852022-12-07 00:31:30-29.8209-51.01882932023690Clb=6.9m/s t=-59.8C h=1.1% p=31.4hPa 403.001 MHz Type=RS41-SGP ser=U0550585 Radiosonde auto_rx v1.5.9
PU3XGS-11U05505852022-12-07 00:31:04-29.8217-51.0184162423549Clb=4.0m/s t=-60.2C h=1.0% p=32.1hPa 403.001 MHz Type=RS41-SGP ser=U0550585 Radiosonde By PU3XGS
PY3UEB-11U05505852022-12-07 00:31:00-29.8221-51.0183351723463Clb=6.1m/s t=-60.9C h=1.2% p=32.5hPa 403.001 MHz Type=RS41-SGP ser=U0550585 Radiosonde auto_rx v1.5.9
PY3UEB-11U05505852022-12-07 00:30:30-29.8222-51.0182199723367Clb=5.1m/s t=-61.1C h=1.2% p=33.0hPa 403.001 MHz Type=RS41-SGP ser=U0550585 Radiosonde auto_rx v1.5.9
PU3XGS-11U05505852022-12-07 00:30:02-29.822-51.0178309923218Clb=6.3m/s t=-62.1C h=1.2% p=33.8hPa 403.001 MHz Type=RS41-SGP ser=U0550585 Radiosonde By PU3XGS
PY3UEB-11U05505852022-12-07 00:30:00-29.822-51.0178264723207Clb=4.2m/s t=-62.3C h=1.2% p=33.9hPa 403.001 MHz Type=RS41-SGP ser=U0550585 Radiosonde auto_rx v1.5.9
PY3UEB-11U05505852022-12-07 00:29:30-29.8228-51.0175357623042Clb=5.9m/s t=-63.1C h=1.4% p=34.8hPa 403.001 MHz Type=RS41-SGP ser=U0550585 Radiosonde auto_rx v1.5.9
PU3XGS-11U05505852022-12-07 00:29:00-29.8232-51.017340622860Clb=4.3m/s t=-62.7C h=1.4% p=35.9hPa 403.001 MHz Type=RS41-SGP ser=U0550585 Radiosonde By PU3XGS
PY3UEB-11U05505852022-12-07 00:28:30-29.823-51.0164290622654Clb=6.3m/s t=-63.9C h=1.6% p=37.0hPa 403.001 MHz Type=RS41-SGP ser=U0550585 Radiosonde auto_rx v1.5.9
PU3XGS-12U05505852022-12-07 00:28:02-29.8234-51.0163341722513Clb=6.4m/s p=37.9hPa t=-65.2C h=1.8% 403.000MHz Type=RS41-SGP rdzTTGOsonde
PY3UEB-11U05505852022-12-07 00:28:00-29.8234-51.0163323722495Clb=5.0m/s t=-65.2C h=1.7% p=38.0hPa 403.001 MHz Type=RS41-SGP ser=U0550585 Radiosonde auto_rx v1.5.9
PU3XGS-11U05505852022-12-07 00:27:58-29.8235-51.01626222482Clb=6.0m/s t=-65.2C h=1.7% p=38.1hPa 403.001 MHz Type=RS41-SGP ser=U0550585 Radiosonde By PU3XGS
PY3UEB-11U05505852022-12-07 00:27:30-29.823-51.01591761122313Clb=6.5m/s t=-65.4C h=1.8% p=39.2hPa 403.001 MHz Type=RS41-SGP ser=U0550585 Radiosonde auto_rx v1.5.9
PY3UEB-11U05505852022-12-07 00:27:00-29.8219-51.01542081522141Clb=4.0m/s t=-65.0C h=1.8% p=40.3hPa 403.001 MHz Type=RS41-SGP ser=U0550585 Radiosonde auto_rx v1.5.9
PU3XGS-11U05505852022-12-07 00:26:56-29.8219-51.01542191922132Clb=6.2m/s t=-65.1C h=1.8% p=40.3hPa 403.001 MHz Type=RS41-SGP ser=U0550585 Radiosonde By PU3XGS
PY3UEB-11U05505852022-12-07 00:26:30-29.8202-51.01422411721943Clb=6.5m/s t=-65.2C h=1.9% p=41.6hPa 403.001 MHz Type=RS41-SGP ser=U0550585 Radiosonde auto_rx v1.5.9
PU3IKE-1U05505852022-12-07 00:26:00-29.8195-51.01342272221832Clb=6.0m/s t=-64.7C h=2.0% p=42.4hPa 403.001 MHz Type=RS41-SGP RSonde auto_rx v1.5.9
PU3XGS-11U05505852022-12-07 00:25:54-29.8194-51.01322571321800Clb=4.9m/s t=-64.7C h=1.9% p=42.6hPa 403.001 MHz Type=RS41-SGP ser=U0550585 Radiosonde By PU3XGS
PU3IKE-1U05505852022-12-07 00:25:30-29.8187-51.01182293121668Clb=7.0m/s t=-65.6C h=2.0% p=43.5hPa 403.001 MHz Type=RS41-SGP RSonde auto_rx v1.5.9
PU3IKE-1U05505852022-12-07 00:25:00-29.8184-51.01042651121497Clb=7.4m/s t=-66.7C h=2.3% p=44.7hPa 403.001 MHz Type=RS41-SGP RSonde auto_rx v1.5.9
PY3UEB-11U05505852022-12-07 00:24:30-29.8186-51.00892731921287Clb=6.1m/s t=-66.9C h=2.6% p=46.3hPa 403.001 MHz Type=RS41-SGP ser=U0550585 Radiosonde auto_rx v1.5.9
PU3XGS-11U05505852022-12-07 00:24:20-29.8187-51.00862741521249Clb=5.9m/s t=-66.7C h=2.5% p=46.6hPa 403.001 MHz Type=RS41-SGP ser=U0550585 Radiosonde By PU3XGS
PY3UEB-11U05505852022-12-07 00:24:00-29.8182-51.00692162821087Clb=6.3m/s t=-67.3C h=2.6% p=47.8hPa 403.001 MHz Type=RS41-SGP ser=U0550585 Radiosonde auto_rx v1.5.9
PY3UEB-11U05505852022-12-07 00:23:30-29.8175-51.00492442820929Clb=6.1m/s t=-68.1C h=3.0% p=49.1hPa 403.001 MHz Type=RS41-SGP ser=U0550585 Radiosonde auto_rx v1.5.9
PU3XGS-11U05505852022-12-07 00:23:18-29.8172-51.0042553520860Clb=6.0m/s t=-67.9C h=3.2% p=49.6hPa 403.001 MHz Type=RS41-SGP ser=U0550585 Radiosonde By PU3XGS
PU3IKE-1U05505852022-12-07 00:23:00-29.8169-51.00222752620741Clb=5.1m/s t=-67.3C h=3.2% p=50.6hPa 403.001 MHz Type=RS41-SGP RSonde auto_rx v1.5.9
PY3UEB-11U05505852022-12-07 00:22:30-29.8172-50.99942702820586Clb=5.6m/s t=-67.1C h=3.6% p=52.0hPa 403.001 MHz Type=RS41-SGP ser=U0550585 Radiosonde auto_rx v1.5.9
PU3XGS-11U05505852022-12-07 00:22:16-29.8172-50.99822983520509Clb=6.9m/s t=-67.6C h=3.7% p=52.6hPa 403.001 MHz Type=RS41-SGP ser=U0550585 Radiosonde By PU3XGS
PU3IKE-1U05505852022-12-07 00:22:00-29.8176-50.99672953120412Clb=2.8m/s t=-68.9C h=4.3% p=53.4hPa 403.001 MHz Type=RS41-SGP RSonde auto_rx v1.5.9
PU3IKE-1U05505852022-12-07 00:21:30-29.8191-50.99463032820224Clb=4.6m/s t=-70.4C h=5.0% p=55.2hPa 403.001 MHz Type=RS41-SGP RSonde auto_rx v1.5.9
PU3XGS-11U05505852022-12-07 00:21:14-29.8199-50.99363273020127Clb=5.7m/s t=-70.5C h=5.4% p=56.1hPa 403.001 MHz Type=RS41-SGP ser=U0550585 Radiosonde By PU3XGS
PU3IKE-1U05505852022-12-07 00:21:00-29.8209-50.99333312020037Clb=6.5m/s t=-70.6C h=5.6% p=56.9hPa 403.001 MHz Type=RS41-SGP RSonde auto_rx v1.5.9
PY3UEB-11U05505852022-12-07 00:20:30-29.8221-50.9925332419835Clb=7.3m/s t=-71.5C h=6.3% p=58.9hPa 403.001 MHz Type=RS41-SGP ser=U0550585 Radiosonde auto_rx v1.5.9
PU3XGS-11U05505852022-12-07 00:20:12-29.8224-50.9922761119722Clb=3.7m/s t=-72.1C h=7.2% p=60.0hPa 403.001 MHz Type=RS41-SGP ser=U0550585 Radiosonde By PU3XGS
PU3IKE-1U05505852022-12-07 00:20:00-29.8225-50.99113072019581Clb=5.5m/s t=-71.4C h=7.0% p=61.4hPa 403.001 MHz Type=RS41-SGP RSonde auto_rx v1.5.9
PY3UEB-11U05505852022-12-07 00:19:30-29.8233-50.99013322419443Clb=6.5m/s t=-72.6C h=8.4% p=62.9hPa 403.001 MHz Type=RS41-SGP ser=U0550585 Radiosonde auto_rx v1.5.9
PU3XGS-11U05505852022-12-07 00:19:10-29.8246-50.98983582619323Clb=4.6m/s t=-72.2C h=8.7% p=64.2hPa 403.001 MHz Type=RS41-SGP ser=U0550585 Radiosonde By PU3XGS
PY3UEB-11U05505852022-12-07 00:19:00-29.8254-50.9898112619236Clb=5.1m/s t=-72.3C h=8.9% p=65.1hPa 403.001 MHz Type=RS41-SGP ser=U0550585 Radiosonde auto_rx v1.5.9
PY3UEB-11U05505852022-12-07 00:18:30-29.8264-50.98993411719062Clb=2.7m/s t=-74.1C h=10.4% p=67.0hPa 403.001 MHz Type=RS41-SGP ser=U0550585 Radiosonde auto_rx v1.5.9
PU3XGS-11U05505852022-12-07 00:18:08-29.8267-50.9894233718931Clb=6.8m/s t=-74.6C h=10.0% p=68.6hPa 403.001 MHz Type=RS41-SGP ser=U0550585 Radiosonde By PU3XGS
PY3UEB-11U05505852022-12-07 00:18:00-29.8266-50.9893203618879Clb=4.3m/s t=-75.1C h=10.0% p=69.2hPa 403.001 MHz Type=RS41-SGP ser=U0550585 Radiosonde auto_rx v1.5.9
PY3UEB-11U05505852022-12-07 00:17:30-29.8275-50.98813551118540Clb=5.2m/s t=-76.4C h=11.0% p=73.3hPa 403.001 MHz Type=RS41-SGP ser=U0550585 Radiosonde auto_rx v1.5.9
PU3XGS-11U05505852022-12-07 00:17:06-29.8276-50.9883471318531Clb=11.2m/s t=-76.4C h=10.9% p=73.4hPa 403.001 MHz Type=RS41-SGP ser=U0550585 Radiosonde By PU3XGS
PU3IKE-1U05505852022-12-07 00:17:00-29.8279-50.988356618458Clb=1.6m/s t=-76.0C h=10.6% p=74.3hPa 403.001 MHz Type=RS41-SGP RSonde auto_rx v1.5.9
PY3UEB-11U05505852022-12-07 00:16:30-29.8285-50.9878300918258Clb=3.6m/s t=-75.9C h=9.5% p=76.9hPa 403.001 MHz Type=RS41-SGP ser=U0550585 Radiosonde auto_rx v1.5.9
PU3IKE-1U05505852022-12-07 00:16:00-29.8286-50.9883131918104Clb=6.2m/s t=-76.3C h=9.7% p=79.0hPa 403.001 MHz Type=RS41-SGP RSonde auto_rx v1.5.9
PU3XGS-11U05505852022-12-07 00:15:32-29.8276-50.98921552617906Clb=3.5m/s t=-75.6C h=9.1% p=81.8hPa 403.001 MHz Type=RS41-SGP ser=U0550585 Radiosonde By PU3XGS
PY3UEB-11U05505852022-12-07 00:15:30-29.8275-50.98931592617900Clb=6.0m/s t=-75.5C h=8.9% p=81.8hPa 403.001 MHz Type=RS41-SGP ser=U0550585 Radiosonde auto_rx v1.5.9
PU3IKE-1U05505852022-12-07 00:15:00-29.8256-50.98961813017716Clb=7.9m/s t=-74.4C h=8.4% p=84.5hPa 403.001 MHz Type=RS41-SGP RSonde auto_rx v1.5.9
PU3XGS-11U05505852022-12-07 00:14:30-29.8241-50.9899103717499Clb=2.3m/s t=-73.7C h=8.0% p=87.7hPa 403.001 MHz Type=RS41-SGP ser=U0550585 Radiosonde By PU3XGS
PU3IKE-1U05505852022-12-07 00:14:00-29.8242-50.9907831317306Clb=2.9m/s t=-72.7C h=7.6% p=90.6hPa 403.001 MHz Type=RS41-SGP RSonde auto_rx v1.5.9
PY3UEB-11U05505852022-12-07 00:13:30-29.8241-50.9917148417120Clb=3.6m/s t=-72.5C h=7.3% p=93.6hPa 403.001 MHz Type=RS41-SGP ser=U0550585 Radiosonde auto_rx v1.5.9
PU3XGS-11U05505852022-12-07 00:13:28-29.8241-50.9917122917106Clb=3.1m/s t=-72.6C h=7.5% p=93.8hPa 403.001 MHz Type=RS41-SGP ser=U0550585 Radiosonde By PU3XGS
PU3IKE-1U05505852022-12-07 00:13:00-29.823-50.99251622616904Clb=10.6m/s t=-72.1C h=7.3% p=97.0hPa 403.001 MHz Type=RS41-SGP RSonde auto_rx v1.5.9
PU3XGS-12U05505852022-12-07 00:12:42-29.8219-50.99261773116803Clb=4.4m/s p=98.7hPa t=-71.5C h=7.1% 403.000MHz Type=RS41-SGP rdzTTGOsonde
PY3UEB-11U05505852022-12-07 00:12:30-29.8209-50.99261873316720Clb=3.2m/s t=-71.2C h=7.0% p=100.1hPa 403.001 MHz Type=RS41-SGP ser=U0550585 Radiosonde auto_rx v1.5.9
PU3XGS-11U05505852022-12-07 00:12:26-29.8205-50.99251883916691Clb=2.8m/s t=-71.2C h=6.9% p=100.5hPa 403.001 MHz Type=RS41-SGP ser=U0550585 Radiosonde By PU3XGS
PU3XGS-12U05505852022-12-07 00:12:16-29.8194-50.9922141916577Clb=9.1m/s p=102.1hPa t=-70.8C h=6.5% 403.000MHz Type=RS41-SGP rdzTTGOsonde
PU3IKE-1U05505852022-12-07 00:12:00-29.819-50.99172072216513Clb=2.0m/s t=-70.8C h=6.7% p=103.6hPa 403.001 MHz Type=RS41-SGP RSonde auto_rx v1.5.9
PU3XGS-12U05505852022-12-07 00:11:40-29.818-50.99122041916390Clb=7.2m/s p=105.7hPa t=-71.5C h=6.7% 403.000MHz Type=RS41-SGP rdzTTGOsonde
PU3IKE-1U05505852022-12-07 00:11:30-29.8176-50.9912051116315Clb=4.5m/s t=-71.5C h=6.7% p=107.0hPa 403.001 MHz Type=RS41-SGP RSonde auto_rx v1.5.9
PU3XGS-11U05505852022-12-07 00:11:24-29.8175-50.9908257916276Clb=7.2m/s t=-71.6C h=6.9% p=107.7hPa 403.001 MHz Type=RS41-SGP ser=U0550585 Radiosonde By PU3XGS
PU3XGS-12U05505852022-12-07 00:11:11-29.8174-50.990754716193Clb=3.2m/s p=109.3hPa t=-71.7C h=7.1% 403.000MHz Type=RS41-SGP rdzTTGOsonde
PU3IKE-1U05505852022-12-07 00:11:00-29.8172-50.991140916121Clb=3.4m/s t=-71.0C h=6.8% p=110.7hPa 403.001 MHz Type=RS41-SGP RSonde auto_rx v1.5.9
PU3XGS-12U05505852022-12-07 00:10:50-29.8165-50.99131811715989Clb=3.8m/s p=113.2hPa t=-70.9C h=6.8% 403.000MHz Type=RS41-SGP rdzTTGOsonde
PU3IKE-1U05505852022-12-07 00:10:30-29.8161-50.99141571315921Clb=9.7m/s t=-70.6C h=6.6% p=114.5hPa 403.001 MHz Type=RS41-SGP RSonde auto_rx v1.5.9
PU3XGS-11U05505852022-12-07 00:10:22-29.8158-50.9916160715843Clb=4.9m/s t=-70.5C h=6.7% p=115.9hPa 403.001 MHz Type=RS41-SGP ser=U0550585 Radiosonde By PU3XGS
PU3IKE-1U05505852022-12-07 00:10:00-29.8155-50.9919127715727Clb=5.5m/s t=-70.1C h=6.8% p=118.2hPa 403.001 MHz Type=RS41-SGP RSonde auto_rx v1.5.9
PU3XGS-11U05505852022-12-07 00:09:50-29.8154-50.9921136915668Clb=4.3m/s t=-69.7C h=6.7% p=119.4hPa 403.001 MHz Type=RS41-SGP ser=U0550585 Radiosonde By PU3XGS
PU3IKE-1U05505852022-12-07 00:09:30-29.8151-50.9931242215531Clb=3.0m/s t=-69.0C h=7.0% p=122.1hPa 403.001 MHz Type=RS41-SGP RSonde auto_rx v1.5.9
PU3IKE-1U05505852022-12-07 00:09:00-29.8144-50.99441241115343Clb=10.8m/s t=-68.5C h=7.0% p=126.0hPa 403.001 MHz Type=RS41-SGP RSonde auto_rx v1.5.9
PY3UEB-11U05505852022-12-07 00:08:30-29.8142-50.99631002415142Clb=10.7m/s t=-67.8C h=7.5% p=130.4hPa 403.001 MHz Type=RS41-SGP ser=U0550585 Radiosonde auto_rx v1.5.9
PU3IKE-1U05505852022-12-07 00:08:00-29.8138-50.9984983314946Clb=4.8m/s t=-67.6C h=8.3% p=134.6hPa 403.001 MHz Type=RS41-SGP RSonde auto_rx v1.5.9
PU3XGS-11U05505852022-12-07 00:07:46-29.8136-50.99971083014850Clb=7.9m/s t=-67.2C h=8.5% p=136.8hPa 403.001 MHz Type=RS41-SGP ser=U0550585 Radiosonde By PU3XGS
PY3UEB-11U05505852022-12-07 00:07:30-29.8133-51.0017942014675Clb=4.6m/s t=-66.0C h=8.3% p=140.8hPa 403.001 MHz Type=RS41-SGP ser=U0550585 Radiosonde auto_rx v1.5.9
PU3IKE-1U05505852022-12-07 00:07:00-29.8134-51.003672414531Clb=6.4m/s t=-65.2C h=8.1% p=144.0hPa 403.001 MHz Type=RS41-SGP RSonde auto_rx v1.5.9
PU3XGS-11U05505852022-12-07 00:06:44-29.8138-51.0041562414428Clb=4.4m/s t=-64.3C h=7.4% p=146.6hPa 403.001 MHz Type=RS41-SGP ser=U0550585 Radiosonde By PU3XGS
PU3IKE-1U05505852022-12-07 00:06:30-29.8144-51.0049492814336Clb=4.5m/s t=-63.6C h=7.4% p=148.8hPa 403.001 MHz Type=RS41-SGP RSonde auto_rx v1.5.9
PY3UEB-11U05505852022-12-07 00:06:00-29.8161-51.0068413914128Clb=5.7m/s t=-61.9C h=6.2% p=153.9hPa 403.001 MHz Type=RS41-SGP ser=U0550585 Radiosonde auto_rx v1.5.9
PU3XGS-11U05505852022-12-07 00:05:42-29.8176-51.0084444313994Clb=4.7m/s t=-60.6C h=5.6% p=157.3hPa 403.001 MHz Type=RS41-SGP ser=U0550585 Radiosonde By PU3XGS
PU3IKE-1U05505852022-12-07 00:05:30-29.8183-51.0093414113924Clb=4.0m/s t=-60.0C h=5.1% p=159.1hPa 403.001 MHz Type=RS41-SGP RSonde auto_rx v1.5.9
PU3IKE-1U05505852022-12-07 00:05:00-29.821-51.0121476113714Clb=7.5m/s t=-58.3C h=4.4% p=164.4hPa 403.001 MHz Type=RS41-SGP RSonde auto_rx v1.5.9
PU3XGS-11U05505852022-12-07 00:04:40-29.8232-51.0147497013542Clb=6.0m/s t=-57.0C h=4.0% p=168.9hPa 403.001 MHz Type=RS41-SGP ser=U0550585 Radiosonde By PU3XGS
PY3UEB-11U05505852022-12-07 00:04:30-29.8243-51.0162537013466Clb=9.7m/s t=-56.6C h=3.7% p=170.8hPa 403.001 MHz Type=RS41-SGP ser=U0550585 Radiosonde auto_rx v1.5.9
PU3IKE-1U05505852022-12-07 00:04:00-29.8279-51.0223607613239Clb=4.0m/s t=-54.6C h=3.3% p=177.2hPa 403.001 MHz Type=RS41-SGP RSonde auto_rx v1.5.9
PU3XGS-11U05505852022-12-07 00:03:38-29.8295-51.0257597413120Clb=9.4m/s t=-53.9C h=3.6% p=180.3hPa 403.001 MHz Type=RS41-SGP ser=U0550585 Radiosonde By PU3XGS
PU3IKE-1U05505852022-12-07 00:03:30-29.8302-51.0273657613068Clb=9.5m/s t=-53.9C h=4.0% p=181.8hPa 403.001 MHz Type=RS41-SGP RSonde auto_rx v1.5.9
PU3IKE-1U05505852022-12-07 00:03:00-29.8329-51.0338638712871Clb=4.0m/s t=-53.3C h=4.1% p=187.5hPa 403.001 MHz Type=RS41-SGP RSonde auto_rx v1.5.9
PU3XGS-11U05505852022-12-07 00:02:36-29.8354-51.0397628712705Clb=3.8m/s t=-51.8C h=3.5% p=192.4hPa 403.001 MHz Type=RS41-SGP ser=U0550585 Radiosonde By PU3XGS
PU3IKE-1U05505852022-12-07 00:02:30-29.8359-51.0409628912670Clb=5.2m/s t=-51.4C h=3.3% p=193.3hPa 403.001 MHz Type=RS41-SGP RSonde auto_rx v1.5.9
PY3UEB-11U05505852022-12-07 00:02:00-29.8388-51.0474628912471Clb=1.9m/s t=-49.6C h=2.7% p=199.2hPa 403.001 MHz Type=RS41-SGP ser=U0550585 Radiosonde auto_rx v1.5.9
PU3IKE-1U05505852022-12-07 00:01:30-29.8424-51.0547578012227Clb=8.5m/s t=-47.5C h=2.5% p=206.8hPa 403.001 MHz Type=RS41-SGP RSonde auto_rx v1.5.9
PU3XGS-11U05505852022-12-07 00:01:02-29.8444-51.0586597212083Clb=8.1m/s t=-46.4C h=2.6% p=211.3hPa 403.001 MHz Type=RS41-SGP ser=U0550585 Radiosonde By PU3XGS
PU3IKE-1U05505852022-12-07 00:01:00-29.8446-51.059567212071Clb=6.0m/s t=-46.3C h=2.4% p=211.7hPa 403.001 MHz Type=RS41-SGP RSonde auto_rx v1.5.9
PU3IKE-1U05505852022-12-07 00:00:30-29.8474-51.0638597411865Clb=5.1m/s t=-45.4C h=2.4% p=218.4hPa 403.001 MHz Type=RS41-SGP RSonde auto_rx v1.5.9
PU3XGS-11U05505852022-12-07 00:00:00-29.8505-51.069487811639Clb=9.5m/s t=-44.0C h=2.4% p=225.8hPa 403.001 MHz Type=RS41-SGP ser=U0550585 Radiosonde By PU3XGS
PU3XGS-12U05505852022-12-06 23:59:57-29.8507-51.0694467611626Clb=8.4m/s p=226.3hPa t=-43.9C h=2.2% 403.000MHz Type=RS41-SGP rdzTTGOsonde
PU3IKE-1U05505852022-12-06 23:59:30-29.8551-51.0744458911409Clb=10.0m/s t=-42.3C h=2.2% p=233.6hPa 403.001 MHz Type=RS41-SGP RSonde auto_rx v1.5.9
PU3XGS-11U05505852022-12-06 23:58:58-29.8609-51.0809439611182Clb=7.2m/s t=-41.3C h=2.3% p=241.6hPa 403.001 MHz Type=RS41-SGP ser=U0550585 Radiosonde By PU3XGS
PU3IKE-1U05505852022-12-06 23:58:30-29.8667-51.08694010010962Clb=8.2m/s t=-39.8C h=2.2% p=249.3hPa 403.001 MHz Type=RS41-SGP RSonde auto_rx v1.5.9
PY3UEB-11U05505852022-12-06 23:58:00-29.872-51.09254110910778Clb=8.9m/s t=-38.4C h=2.1% p=256.3hPa 403.001 MHz Type=RS41-SGP ser=U0550585 Radiosonde auto_rx v1.5.9
PU3XGS-11U05505852022-12-06 23:57:56-29.8728-51.09344210910751Clb=8.6m/s t=-38.2C h=2.2% p=257.2hPa 403.001 MHz Type=RS41-SGP ser=U0550585 Radiosonde By PU3XGS
PU3IKE-1U05505852022-12-06 23:57:30-29.878-51.09934611110565Clb=4.1m/s t=-37.1C h=2.2% p=264.3hPa 403.001 MHz Type=RS41-SGP RSonde auto_rx v1.5.9
PU3IKE-1U05505852022-12-06 23:57:00-29.8844-51.10684512410344Clb=11.1m/s t=-273.0C h=-1.0% p=272.6hPa 403.001 MHz Type=RS41-SGP RSonde auto_rx v1.5.9
PU3XGS-11U05505852022-12-06 23:56:54-29.8857-51.10844313010296Clb=8.9m/s t=-35.2C h=1.9% p=274.7hPa 403.001 MHz Type=RS41-SGP ser=U0550585 Radiosonde By PU3XGS
PY3UEB-11U05505852022-12-06 23:56:30-29.891-51.11454511910120Clb=8.1m/s t=-33.9C h=1.9% p=281.7hPa 403.001 MHz Type=RS41-SGP ser=U0550585 Radiosonde auto_rx v1.5.9
PY3UEB-11U05505852022-12-06 23:56:00-29.897-51.122443989920Clb=10.6m/s t=-32.4C h=2.0% p=289.8hPa 403.001 MHz Type=RS41-SGP ser=U0550585 Radiosonde auto_rx v1.5.9
PU3XGS-11U05505852022-12-06 23:55:52-29.8983-51.1242521139852Clb=9.4m/s t=-31.9C h=1.9% p=292.6hPa 403.001 MHz Type=RS41-SGP ser=U0550585 Radiosonde By PU3XGS
PY3UEB-11U05505852022-12-06 23:55:30-29.9026-51.129749989673Clb=5.0m/s t=-30.8C h=1.6% p=300.1hPa 403.001 MHz Type=RS41-SGP ser=U0550585 Radiosonde auto_rx v1.5.9
PY3UEB-11U05505852022-12-06 23:55:00-29.9078-51.1367481029479Clb=7.7m/s t=-29.8C h=1.7% p=308.4hPa 403.001 MHz Type=RS41-SGP ser=U0550585 Radiosonde auto_rx v1.5.9
PY3UEB-11U05505852022-12-06 23:54:30-29.9126-51.1422401029322Clb=2.0m/s t=-28.9C h=1.7% p=315.2hPa 403.001 MHz Type=RS41-SGP ser=U0550585 Radiosonde auto_rx v1.5.9
PU3XGS-11U05505852022-12-06 23:54:18-29.9144-51.1441401099258Clb=6.2m/s t=-29.1C h=1.9% p=317.9hPa 403.001 MHz Type=RS41-SGP ser=U0550585 Radiosonde By PU3XGS
PY3UEB-11U05505852022-12-06 23:54:00-29.9172-51.147552769105Clb=10.4m/s t=-28.6C h=2.4% p=324.7hPa 403.001 MHz Type=RS41-SGP ser=U0550585 Radiosonde auto_rx v1.5.9
PY3UEB-11U05505852022-12-06 23:53:30-29.9212-51.152843638899Clb=8.0m/s t=-26.8C h=1.8% p=334.4hPa 403.001 MHz Type=RS41-SGP ser=U0550585 Radiosonde auto_rx v1.5.9
PY3UEB-11U05505852022-12-06 23:53:00-29.9244-51.156646578714Clb=5.6m/s t=-25.7C h=1.7% p=342.8hPa 403.001 MHz Type=RS41-SGP ser=U0550585 Radiosonde auto_rx v1.5.9
PU3XGS-11U05505852022-12-06 23:52:46-29.9259-51.158745568622Clb=9.2m/s t=-25.2C h=2.0% p=347.1hPa 403.001 MHz Type=RS41-SGP ser=U0550585 Radiosonde By PU3XGS
PU3IKE-1U05505852022-12-06 23:52:30-29.9281-51.161127658492Clb=4.6m/s t=-25.0C h=3.0% p=353.5hPa 403.001 MHz Type=RS41-SGP RSonde auto_rx v1.5.9
PU3XGS-11U05505852022-12-06 23:52:14-29.9294-51.162340528402Clb=9.6m/s t=-24.9C h=3.2% p=357.8hPa 403.001 MHz Type=RS41-SGP ser=U0550585 Radiosonde By PU3XGS
PY3UEB-11U05505852022-12-06 23:52:00-29.9312-51.163831598298Clb=5.6m/s t=-24.5C h=4.7% p=362.9hPa 403.001 MHz Type=RS41-SGP ser=U0550585 Radiosonde auto_rx v1.5.9
PU3XGS-12U05505852022-12-06 23:51:48-29.9324-51.165240598241Clb=11.1m/s p=365.7hPa t=-24.2C h=3.2% 403.000MHz Type=RS41-SGP rdzTTGOsonde
PY3UEB-11U05505852022-12-06 23:51:30-29.9343-51.167248568073Clb=9.0m/s t=-22.9C h=2.7% p=374.1hPa 403.001 MHz Type=RS41-SGP ser=U0550585 Radiosonde auto_rx v1.5.9
PU3XGS-12U05505852022-12-06 23:51:27-29.935-51.168269488010Clb=5.8m/s p=377.2hPa t=-22.3C h=2.6% 403.000MHz Type=RS41-SGP rdzTTGOsonde
PU3XGS-11U05505852022-12-06 23:51:12-29.9354-51.168829447970Clb=9.2m/s t=-21.9C h=2.6% p=379.2hPa 403.001 MHz Type=RS41-SGP ser=U0550585 Radiosonde By PU3XGS
PY3UEB-11U05505852022-12-06 23:51:00-29.9363-51.170363567895Clb=4.2m/s t=-21.3C h=2.5% p=383.3hPa 403.001 MHz Type=RS41-SGP ser=U0550585 Radiosonde auto_rx v1.5.9
PU3IKE-1U05505852022-12-06 23:50:30-29.9388-51.173348487707Clb=8.5m/s t=-20.0C h=2.4% p=392.9hPa 403.001 MHz Type=RS41-SGP RSonde auto_rx v1.5.9
PU3XGS-11U05505852022-12-06 23:50:10-29.9403-51.175238637566Clb=4.9m/s t=-19.0C h=2.4% p=400.8hPa 403.001 MHz Type=RS41-SGP ser=U0550585 Radiosonde By PU3XGS
PY3UEB-11U05505852022-12-06 23:50:00-29.9412-51.176235487507Clb=8.1m/s t=-18.7C h=2.5% p=404.0hPa 403.001 MHz Type=RS41-SGP ser=U0550585 Radiosonde auto_rx v1.5.9
PY3UEB-11U05505852022-12-06 23:49:30-29.9443-51.179546617298Clb=6.2m/s t=-17.1C h=2.0% p=415.4hPa 403.001 MHz Type=RS41-SGP ser=U0550585 Radiosonde auto_rx v1.5.9
PU3XGS-11U05505852022-12-06 23:49:08-29.9464-51.181519507158Clb=5.6m/s t=-15.9C h=2.0% p=423.0hPa 403.001 MHz Type=RS41-SGP ser=U0550585 Radiosonde By PU3XGS
PY3UEB-11U05505852022-12-06 23:49:00-29.9471-51.182155377111Clb=11.0m/s t=-15.8C h=2.2% p=425.6hPa 403.001 MHz Type=RS41-SGP ser=U0550585 Radiosonde auto_rx v1.5.9
PU3IKE-1U05505852022-12-06 23:48:30-29.9499-51.184744466900Clb=5.0m/s t=-14.7C h=2.6% p=437.8hPa 403.001 MHz Type=RS41-SGP RSonde auto_rx v1.5.9
PU3XGS-11U05505852022-12-06 23:48:06-29.952-51.186649526758Clb=6.8m/s t=-13.6C h=2.6% p=446.1hPa 403.001 MHz Type=RS41-SGP ser=U0550585 Radiosonde By PU3XGS
PU3IKE-1U05505852022-12-06 23:48:00-29.9527-51.187242546712Clb=8.9m/s t=-13.2C h=-1.0% p=448.6hPa 403.001 MHz Type=RS41-SGP RSonde auto_rx v1.5.9
PY3UEB-11U05505852022-12-06 23:47:30-29.9554-51.190149446531Clb=4.3m/s t=-12.0C h=2.6% p=459.3hPa 403.001 MHz Type=RS41-SGP ser=U0550585 Radiosonde auto_rx v1.5.9
PU3XGS-11U05505852022-12-06 23:47:04-29.9572-51.191950306384Clb=6.3m/s t=-10.9C h=2.6% p=468.1hPa 403.001 MHz Type=RS41-SGP ser=U0550585 Radiosonde By PU3XGS
PU3IKE-1U05505852022-12-06 23:47:00-29.9575-51.192116306354Clb=10.2m/s t=-10.6C h=-1.0% p=469.9hPa 403.001 MHz Type=RS41-SGP RSonde auto_rx v1.5.9
PU3IKE-1U05505852022-12-06 23:46:30-29.9604-51.194439436133Clb=4.7m/s t=-8.9C h=-1.0% p=-1.0hPa 403.001 MHz Type=RS41-SGP RSonde auto_rx v1.5.9
PU3XGS-11U05505852022-12-06 23:46:02-29.9622-51.195435465986Clb=5.0m/s t=-7.7C h=2.1% p=493.0hPa 403.001 MHz Type=RS41-SGP ser=U0550585 Radiosonde By PU3XGS
PU3IKE-1U05505852022-12-06 23:46:00-29.9624-51.195528445977Clb=5.1m/s t=-7.6C h=-1.0% p=-1.0hPa 403.001 MHz Type=RS41-SGP RSonde auto_rx v1.5.9
PU3XGS-11U05505852022-12-06 23:45:30-29.9653-51.196414445780Clb=5.4m/s t=-6.2C h=1.6% p=506.1hPa 403.001 MHz Type=RS41-SGP ser=U0550585 Radiosonde By PU3XGS
PY3UEB-11U05505852022-12-06 23:45:00-29.9678-51.197222335560Clb=7.2m/s t=-4.9C h=1.9% p=520.5hPa 403.001 MHz Type=RS41-SGP ser=U0550585 Radiosonde auto_rx v1.5.9
PU3XGS-12U05505852022-12-06 23:44:57-29.9693-51.197727305426Clb=8.4m/s p=529.5hPa t=-4.0C h=2.0% 403.000MHz Type=RS41-SGP rdzTTGOsonde
PY3UEB-11U05505852022-12-06 23:44:30-29.97-51.198227225348Clb=9.0m/s t=-3.4C h=1.5% p=534.7hPa 403.001 MHz Type=RS41-SGP ser=U0550585 Radiosonde auto_rx v1.5.9
PU3XGS-11U05505852022-12-06 23:44:28-29.9701-51.198220305340Clb=8.9m/s t=-3.3C h=1.4% p=535.2hPa 403.001 MHz Type=RS41-SGP ser=U0550585 Radiosonde By PU3XGS
PU3XGS-12U05505852022-12-06 23:44:10-29.9715-51.198611285196Clb=5.2m/s p=545.2hPa t=-2.8C h=1.9% 403.000MHz Type=RS41-SGP rdzTTGOsonde
PY3UEB-11U05505852022-12-06 23:44:00-29.9722-51.199264225127Clb=8.9m/s t=-2.3C h=2.3% p=549.8hPa 403.001 MHz Type=RS41-SGP ser=U0550585 Radiosonde auto_rx v1.5.9
PU3XGS-11U05505852022-12-06 23:43:58-29.9722-51.199265195119Clb=9.2m/s t=-2.3C h=2.3% p=550.3hPa 403.001 MHz Type=RS41-SGP ser=U0550585 Radiosonde By PU3XGS
PU3XGS-12U05505852022-12-06 23:43:37-29.9731-51.250315004Clb=6.9m/s p=558.4hPa t=-1.3C h=2.2% 403.000MHz Type=RS41-SGP rdzTTGOsonde
PY3UEB-11U05505852022-12-06 23:43:30-29.9736-51.200251224950Clb=5.9m/s t=-0.9C h=2.2% p=561.9hPa 403.001 MHz Type=RS41-SGP ser=U0550585 Radiosonde auto_rx v1.5.9
PU3XGS-11U05505852022-12-06 23:43:26-29.9737-51.200441194924Clb=6.4m/s t=-0.7C h=2.2% p=563.7hPa 403.001 MHz Type=RS41-SGP ser=U0550585 Radiosonde By PU3XGS
PU3XGS-12U05505852022-12-06 23:43:25-29.9746-51.201246284818Clb=9.1m/s p=571.0hPa t=0.2C h=2.5% 403.000MHz Type=RS41-SGP rdzTTGOsonde
PY3UEB-11U05505852022-12-06 23:43:00-29.9751-51.201832374764Clb=7.7m/s t=0.7C h=2.5% p=575.0hPa 403.001 MHz Type=RS41-SGP ser=U0550585 Radiosonde auto_rx v1.5.9
PY3UEB-11U05505852022-12-06 23:42:30-29.9765-51.20385114579Clb=6.5m/s t=1.8C h=2.3% p=588.6hPa 403.001 MHz Type=RS41-SGP ser=U0550585 Radiosonde auto_rx v1.5.9
PU3XGS-11U05505852022-12-06 23:42:24-29.9767-51.203440334547Clb=6.9m/s t=2.0C h=2.0% p=590.9hPa 403.001 MHz Type=RS41-SGP ser=U0550585 Radiosonde By PU3XGS
PY3UEB-11U05505852022-12-06 23:42:00-29.9777-51.204621224368Clb=8.5m/s t=3.3C h=1.7% p=604.1hPa 403.001 MHz Type=RS41-SGP ser=U0550585 Radiosonde auto_rx v1.5.9
PY3UEB-11U05505852022-12-06 23:41:30-29.979-51.205757244148Clb=8.0m/s t=4.1C h=3.4% p=620.8hPa 403.001 MHz Type=RS41-SGP ser=U0550585 Radiosonde auto_rx v1.5.9
PU3XGS-11U05505852022-12-06 23:41:22-29.9794-51.205816304094Clb=6.4m/s t=4.5C h=3.3% p=624.7hPa 403.001 MHz Type=RS41-SGP ser=U0550585 Radiosonde By PU3XGS
PY3UEB-11U05505852022-12-06 23:41:00-29.9807-51.206256203933Clb=7.9m/s t=5.1C h=4.0% p=637.3hPa 403.001 MHz Type=RS41-SGP ser=U0550585 Radiosonde auto_rx v1.5.9
PU3XGS-12U05505852022-12-06 23:40:49-29.9814-51.20632993797Clb=10.0m/s p=648.0hPa t=6.2C h=4.0% 403.000MHz Type=RS41-SGP rdzTTGOsonde
PY3UEB-11U05505852022-12-06 23:40:30-29.9817-51.2062349173728Clb=5.9m/s t=6.7C h=3.6% p=653.3hPa 403.001 MHz Type=RS41-SGP ser=U0550585 Radiosonde auto_rx v1.5.9
PU3XGS-11U05505852022-12-06 23:40:20-29.9822-51.20621243680Clb=7.0m/s t=7.1C h=3.5% p=657.1hPa 403.001 MHz Type=RS41-SGP ser=U0550585 Radiosonde By PU3XGS
PU3XGS-12U05505852022-12-06 23:40:04-29.9829-51.20624263586Clb=10.1m/s p=664.7hPa t=7.8C h=5.2% 403.000MHz Type=RS41-SGP rdzTTGOsonde
PY3UEB-11U05505852022-12-06 23:40:00-29.9832-51.20636133535Clb=7.1m/s t=8.1C h=6.2% p=668.8hPa 403.001 MHz Type=RS41-SGP ser=U0550585 Radiosonde auto_rx v1.5.9
PU3XGS-12U05505852022-12-06 23:39:33-29.9845-51.206922243364Clb=7.7m/s p=682.6hPa t=9.6C h=5.7% 403.000MHz Type=RS41-SGP rdzTTGOsonde
PY3UEB-11U05505852022-12-06 23:39:30-29.9847-51.20720243338Clb=4.9m/s t=9.8C h=5.9% p=684.9hPa 403.001 MHz Type=RS41-SGP ser=U0550585 Radiosonde auto_rx v1.5.9
PU3XGS-11U05505852022-12-06 23:39:18-29.9854-51.20718283258Clb=6.5m/s t=10.5C h=4.7% p=691.6hPa 403.001 MHz Type=RS41-SGP ser=U0550585 Radiosonde By PU3XGS
PU3XGS-12U05505852022-12-06 23:39:04-29.9863-51.2073355243162Clb=7.5m/s p=699.7hPa t=11.2C h=3.9% 403.000MHz Type=RS41-SGP rdzTTGOsonde
PY3UEB-11U05505852022-12-06 23:39:00-29.9866-51.207419173128Clb=6.2m/s t=11.3C h=3.8% p=702.5hPa 403.001 MHz Type=RS41-SGP ser=U0550585 Radiosonde auto_rx v1.5.9
PU3XGS-12U05505852022-12-06 23:38:33-29.988-51.2076346202954Clb=5.2m/s p=717.0hPa t=12.3C h=3.9% 403.000MHz Type=RS41-SGP rdzTTGOsonde
PY3UEB-11U05505852022-12-06 23:38:30-29.9881-51.2075351192926Clb=5.4m/s t=12.4C h=3.9% p=719.5hPa 403.001 MHz Type=RS41-SGP ser=U0550585 Radiosonde auto_rx v1.5.9
PU3XGS-11U05505852022-12-06 23:38:16-29.9889-51.207820262840Clb=7.1m/s t=12.7C h=4.6% p=727.2hPa 403.001 MHz Type=RS41-SGP ser=U0550585 Radiosonde By PU3XGS
PU3XGS-12U05505852022-12-06 23:38:15-29.9897-51.20780282756Clb=9.0m/s p=734.3hPa t=13.4C h=4.4% 403.000MHz Type=RS41-SGP rdzTTGOsonde
PY3UEB-11U05505852022-12-06 23:38:00-29.9899-51.207911192736Clb=4.9m/s t=13.5C h=4.4% p=736.0hPa 403.001 MHz Type=RS41-SGP ser=U0550585 Radiosonde auto_rx v1.5.9
PU3XGS-11U05505852022-12-06 23:37:45-29.9905-51.2077327192633Clb=7.4m/s t=14.1C h=4.2% p=745.1hPa 403.001 MHz Type=RS41-SGP ser=U0550585 Radiosonde By PU3XGS
PY3UEB-11U05505852022-12-06 23:37:30-29.9911-51.2075344222537Clb=6.6m/s t=14.8C h=4.3% p=753.6hPa 403.001 MHz Type=RS41-SGP ser=U0550585 Radiosonde auto_rx v1.5.9
PU3XGS-11U05505852022-12-06 23:37:14-29.9918-51.2073358132437Clb=7.0m/s t=15.5C h=3.6% p=762.6hPa 403.001 MHz Type=RS41-SGP ser=U0550585 Radiosonde By PU3XGS
PY3UEB-11U05505852022-12-06 23:37:00-29.9922-51.2072336112345Clb=8.4m/s t=16.1C h=4.1% p=770.7hPa 403.001 MHz Type=RS41-SGP ser=U0550585 Radiosonde auto_rx v1.5.9
PU3XGS-11U05505852022-12-06 23:36:42-29.9927-51.207330152238Clb=5.6m/s t=16.5C h=3.6% p=780.7hPa 403.001 MHz Type=RS41-SGP ser=U0550585 Radiosonde By PU3XGS
PY3UEB-11U05505852022-12-06 23:36:30-29.9933-51.2067331172151Clb=6.6m/s t=16.6C h=4.3% p=788.4hPa 403.001 MHz Type=RS41-SGP ser=U0550585 Radiosonde auto_rx v1.5.9
PU3XGS-11U05505852022-12-06 23:36:11-29.9942-51.2061320112035Clb=6.4m/s t=16.4C h=10.5% p=799.3hPa 403.001 MHz Type=RS41-SGP ser=U0550585 Radiosonde By PU3XGS
PY3UEB-11U05505852022-12-06 23:36:00-29.9945-51.2058314201966Clb=5.2m/s t=16.8C h=12.4% p=805.7hPa 403.001 MHz Type=RS41-SGP ser=U0550585 Radiosonde auto_rx v1.5.9
PU3XGS-11U05505852022-12-06 23:35:40-29.9949-51.2047290191838Clb=5.8m/s t=16.9C h=22.3% p=818.4hPa 403.001 MHz Type=RS41-SGP ser=U0550585 Radiosonde By PU3XGS
PY3UEB-11U05505852022-12-06 23:35:30-29.9951-51.2043292171787Clb=6.2m/s t=17.1C h=24.1% p=823.1hPa 403.001 MHz Type=RS41-SGP ser=U0550585 Radiosonde auto_rx v1.5.9
PU3XGS-11U05505852022-12-06 23:35:09-29.9953-51.2032268191668Clb=7.8m/s t=17.0C h=42.1% p=835.0hPa 403.001 MHz Type=RS41-SGP ser=U0550585 Radiosonde By PU3XGS
PY3UEB-11U05505852022-12-06 23:35:00-29.9954-51.2027285191608Clb=8.1m/s t=-273.0C h=-1.0% p=840.4hPa 403.001 MHz Type=RS41-SGP ser=U0550585 Radiosonde auto_rx v1.5.9
PU3XGS-11U05505852022-12-06 23:34:39-29.9959-51.2012289301474Clb=6.5m/s t=18.1C h=46.9% p=853.6hPa 403.001 MHz Type=RS41-SGP ser=U0550585 Radiosonde By PU3XGS
PY3UEB-11U05505852022-12-06 23:34:30-29.9961-51.2006288261426Clb=6.9m/s t=-273.0C h=-1.0% p=-1.0hPa 403.001 MHz Type=RS41 ser=U0550585 Radiosonde auto_rx v1.5.9
PU3XGS-11U05505852022-12-06 23:34:07-29.9968-51.1989299261283Clb=6.9m/s t=-273.0C h=-1.0% p=-1.0hPa 403.001 MHz Type=RS41 ser=U0550585 Radiosonde By PU3XGS
PY3UEB-11U05505852022-12-06 23:34:00-29.997-51.1985297281247Clb=4.3m/s t=-273.0C h=-1.0% p=-1.0hPa 403.001 MHz Type=RS41 ser=U0550585 Radiosonde auto_rx v1.5.9
PU3XGS-11U05505852022-12-06 23:33:36-29.9979-51.1969316281099Clb=5.7m/s t=-273.0C h=-1.0% p=-1.0hPa 403.001 MHz Type=RS41 ser=U0550585 Radiosonde By PU3XGS
PY3UEB-11U05505852022-12-06 23:33:30-29.9981-51.1966309301069Clb=7.7m/s t=-273.0C h=-1.0% p=-1.0hPa 403.001 MHz Type=RS41 ser=U0550585 Radiosonde auto_rx v1.5.9
PU3XGS-11U05505852022-12-06 23:33:05-29.9994-51.19530028934Clb=5.7m/s t=-273.0C h=-1.0% p=-1.0hPa 403.001 MHz Type=RS41 ser=U0550585 Radiosonde By PU3XGS